Data for 09/21/2008

Time Sea-Level Adjusted Pressure Absolute Pressure Temperature Relative Humidity Dew Point Precipitation   
(mb) (inHg) (mb) (inHg) (C) (F) (%) (C) (F) (mm) (in)
00:01 1016 30 845 24.95 8.9 47.9 80 5.7 42.2 0
00:02 1016 30 845 24.95 8.9 48 80 5.6 42.1 0
00:03 1016 30 845 24.95 9 48.2 80 5.6 42.2 0
00:04 1016 30 845 24.95 9 48.3 79 5.7 42.2 0
00:05 1016 30 845 24.95 9.1 48.3 79 5.7 42.3 0
00:06 1016 30 845 24.95 9 48.2 80 5.7 42.3 0
00:07 1016 30 845 24.95 8.9 48 80 5.7 42.3 0
00:08 1016 30 845 24.95 8.8 47.9 80 5.7 42.2 0
00:09 1016 30 845 24.95 8.7 47.7 80 5.6 42 0
00:10 1016 30 845 24.95 8.6 47.4 81 5.5 41.9 0
00:11 1016 30 845 24.95 8.4 47.2 81 5.4 41.8 0
00:12 1016 30 845 24.95 8.2 46.8 83 5.5 41.9 0
00:13 1016 30 845 24.95 8.3 46.9 82 5.4 41.7 0
00:14 1016 30 845 24.95 8.4 47.1 82 5.5 41.9 0
00:15 1016 30 845 24.95 8.4 47.2 82 5.5 41.9 0
00:16 1016 30 845 24.95 8.4 47.1 82 5.5 41.9 0
00:17 1016 30 845 24.95 8.4 47.1 82 5.5 41.8 0
00:18 1016 30 845 24.95 8.9 48 79 5.5 41.9 0
00:19 1016 30 845 24.95 9.1 48.4 78 5.6 42 0
00:20 1016 30 845 24.95 9 48.2 80 5.6 42.2 0
00:21 1016 30 845 24.95 8.8 47.8 80 5.6 42.1 0
00:22 1016 30 845 24.95 8.6 47.4 81 5.5 42 0
00:23 1016 30 845 24.95 8.5 47.3 82 5.6 42 0
00:24 1016 30 845 24.95 8.5 47.2 82 5.6 42.1 0
00:25 1016 30 845 24.95 8.5 47.2 82 5.5 42 0
00:26 1016 30 845 24.95 8.5 47.2 82 5.6 42.1 0
00:27 1016 30 845 24.95 8.6 47.5 81 5.5 41.9 0
00:28 1016 30 845 24.95 8.7 47.7 81 5.6 42 0
00:29 1016 30 845 24.95 8.7 47.6 81 5.7 42.2 0
00:30 1016 30 845 24.95 8.6 47.6 81 5.6 42 0
00:31 1016 30 845 24.95 8.8 47.8 80 5.6 42.1 0
00:32 1016 30 845 24.95 8.8 47.8 80 5.6 42.1 0
00:33 1016 30 845 24.95 8.8 47.9 80 5.6 42.2 0
00:34 1016 30 845 24.95 8.9 47.9 81 5.7 42.3 0
00:35 1016 30 845 24.95 8.9 47.9 81 5.7 42.3 0
00:36 1016 30 845 24.95 8.9 48.1 80 5.8 42.4 0
00:37 1016 30 845 24.95 9 48.1 80 5.7 42.3 0
00:38 1016 30 845 24.95 8.8 47.8 81 5.7 42.3 0
00:39 1016 30 845 24.95 8.7 47.7 82 5.8 42.4 0
00:40 1016 30 845 24.95 8.6 47.5 82 5.7 42.3 0
00:41 1016 30 845 24.95 8.6 47.4 82 5.7 42.3 0
00:42 1016 30 845 24.95 8.6 47.4 82 5.7 42.3 0
00:43 1016 30 845 24.95 8.6 47.4 82 5.7 42.3 0
00:44 1016 30 845 24.95 8.5 47.3 82 5.7 42.2 0
00:45 1016 30 845 24.95 8.7 47.6 81 5.6 42.1 0
00:46 1016 30 845 24.95 8.8 47.8 81 5.7 42.2 0
00:47 1016 30 845 24.95 8.9 47.9 79 5.4 41.7 0
00:48 1016 30 845 24.95 9.2 48.6 77 5.5 41.8 0
00:49 1016 30 845 24.95 9.5 49.1 76 5.5 42 0
00:50 1016 30 845 24.95 9.5 49.1 77 5.7 42.2 0
00:51 1016 30 845 24.95 9.2 48.6 79 5.7 42.3 0
00:52 1016 30 845 24.95 8.9 48.1 80 5.7 42.2 0
00:53 1016 30 845 24.95 8.8 47.8 80 5.5 42 0
00:54 1016 30 845 24.95 8.6 47.5 80 5.5 41.8 0
00:55 1016 30 845 24.95 8.5 47.3 81 5.5 41.8 0
00:56 1016 30 845 24.95 8.5 47.2 82 5.5 41.9 0
00:57 1016 30 845 24.95 8.5 47.2 81 5.5 41.9 0
00:58 1016 30 845 24.95 8.3 47 81 5.2 41.4 0
00:59 1016 30 845 24.95 8 46.4 82 5.2 41.4 0
01:00 1016 30 845 24.95 7.8 46 83 5.1 41.3 0
01:01 1016 30 845 24.95 7.6 45.7 84 5.1 41.2 0
01:02 1016 30 845 24.95 7.4 45.4 84 4.9 40.8 0
01:03 1016 30 845 24.95 7.2 44.9 85 4.9 40.8 0
01:04 1016 30 845 24.95 7 44.6 87 5 41 0
01:05 1016 30 845 24.95 7.1 44.8 86 4.9 40.7 0
01:06 1016 30 845 24.95 7.3 45.1 85 4.9 40.8 0
01:07 1016 30 845 24.95 7.4 45.4 85 5 41 0
01:08 1016 30 845 24.95 7.7 45.9 83 4.9 40.9 0
01:09 1016 30 845 24.95 7.7 45.9 83 4.9 40.9 0
01:10 1016 30 845 24.95 7.5 45.5 84 5 41 0
01:11 1016 30 845 24.95 7.4 45.4 84 5 40.9 0
01:12 1016 30 845 24.95 7.4 45.3 85 5 41 0
01:13 1016 30 845 24.95 7.4 45.3 84 5 40.9 0
01:14 1016 30 845 24.95 7.8 46 82 4.9 40.8 0
01:15 1016 30 845 24.95 7.9 46.2 81 4.8 40.7 0
01:16 1016 30 845 24.95 7.6 45.6 83 4.8 40.7 0
01:17 1016 30 845 24.95 7.3 45.1 85 4.9 40.8 0
01:18 1016 30 845 24.95 7.1 44.8 85 4.8 40.6 0
01:19 1016 30 845 24.95 7 44.6 85 4.7 40.5 0
01:20 1016 30 845 24.95 6.9 44.5 86 4.7 40.4 0
01:21 1016 30 845 24.95 6.9 44.4 87 4.9 40.8 0
01:22 1016 30 845 24.95 7 44.6 86 4.8 40.6 0
01:23 1016 30 845 24.95 7.1 44.8 85 4.8 40.7 0
01:24 1016 30 845 24.95 7.3 45.1 84 4.7 40.5 0
01:25 1016 30 845 24.95 7.2 45 84 4.6 40.4 0
01:26 1016 30 845 24.95 7 44.6 85 4.7 40.5 0
01:27 1016 30 845 24.95 7 44.6 87 4.9 40.9 0
01:28 1016 30 845 24.95 6.9 44.5 88 5 41 0
01:29 1016 30 845 24.95 7.1 44.7 87 5 41.1 0
01:30 1016 30 845 24.95 7.1 44.9 87 5.1 41.2 0
01:31 1016 30 845 24.95 7.2 44.9 87 5.1 41.2 0
01:32 1016 30 845 24.95 7.2 44.9 87 5.1 41.2 0
01:33 1016 30 845 24.95 7.2 45 86 5.1 41.1 0
01:34 1016 30 845 24.95 7.3 45.1 86 5.1 41.1 0
01:35 1016 30 845 24.95 7.4 45.3 85 5.1 41.1 0
01:36 1016 30 845 24.95 7.6 45.7 84 5 41.1 0
01:37 1016 30 845 24.95 7.8 46 83 5 41.1 0
01:38 1016 30 845 24.95 7.8 46.1 82 4.9 40.8 0
01:39 1016 30 845 24.95 7.7 45.8 82 4.8 40.7 0
01:40 1016 30 845 24.95 7.5 45.5 84 5 41 0
01:41 1016 30 845 24.95 7.6 45.6 83 4.9 40.8 0
01:42 1016 30 845 24.95 7.5 45.5 83 4.7 40.5 0
01:43 1016 30 845 24.95 7.4 45.4 83 4.8 40.6 0
01:44 1016 30 845 24.95 7.4 45.2 83 4.7 40.5 0
01:45 1016 30 845 24.95 7.3 45.1 83 4.6 40.4 0
01:46 1016 30 845 24.95 7.1 44.8 84 4.6 40.2 0
01:47 1016 30 845 24.95 6.9 44.4 84 4.4 40 0
01:48 1016 30 845 24.95 6.8 44.2 85 4.4 39.9 0
01:49 1016 30 845 24.95 6.6 44 86 4.6 40.2 0
01:50 1016 30 845 24.95 6.6 43.9 87 4.7 40.4 0
01:51 1016 30 845 24.95 6.6 43.9 88 4.7 40.5 0
01:52 1016 30 845 24.95 6.6 44 88 4.9 40.7 0
01:53 1016 30 845 24.95 6.7 44.1 89 5.1 41.1 0
01:54 1016 30 845 24.95 7 44.7 88 5.2 41.3 0
01:55 1016 30 845 24.95 7.4 45.3 84 4.9 40.9 0
01:56 1016 30 845 24.95 7.5 45.5 82 4.7 40.5 0
01:57 1016 30 845 24.95 7.3 45.1 83 4.5 40.2 0
01:58 1016 30 845 24.95 7.1 44.9 87 5.1 41.1 0
01:59 1016 30 845 24.95 7.2 44.9 86 5 41.1 0
02:00 1016 30 845 24.95 7.3 45.1 85 4.9 40.9 0
02:01 1016 30 845 24.95 7.2 45 85 4.9 40.8 0
02:02 1016 30 845 24.95 7.2 44.9 83 4.6 40.2 0
02:03 1016 30 845 24.95 7 44.7 84 4.5 40.1 0
02:04 1016 30 845 24.95 6.9 44.4 83 4.1 39.5 0
02:05 1016 30 845 24.95 6.6 44 86 4.4 39.9 0
02:06 1016 30 845 24.95 6.7 44.1 88 4.9 40.8 0
02:07 1016 30 845 24.95 7.1 44.7 88 5.2 41.4 0
02:08 1016 30 845 24.95 7.5 45.4 86 5.2 41.4 0
02:09 1016 30 845 24.95 7.9 46.3 83 5.2 41.4 0
02:10 1016 30 845 24.95 8.3 46.9 81 5.3 41.5 0
02:11 1016 30 845 24.95 8.5 47.3 80 5.2 41.4 0
02:12 1016 30 845 24.95 8.5 47.3 77 4.7 40.4 0
02:13 1016 30 845 24.95 8.3 46.9 81 5.2 41.3 0
02:14 1016 30 845 24.95 8.5 47.3 80 5.2 41.4 0
02:15 1016 30 845 24.95 8.6 47.6 79 5.2 41.3 0
02:16 1016 30 845 24.95 8.5 47.3 76 4.5 40.1 0
02:17 1016 30 845 24.95 7.9 46.2 78 4.3 39.7 0
02:18 1016 30 845 24.95 7.3 45.2 81 4.3 39.7 0
02:19 1016 30 845 24.95 7.1 44.7 82 4.2 39.5 0
02:20 1016 30 845 24.95 6.9 44.5 83 4.2 39.5 0
02:21 1016 30 845 24.95 7 44.5 84 4.5 40.1 0
02:22 1016 30 845 24.95 7 44.6 84 4.5 40.1 0
02:23 1016 30 845 24.95 7 44.7 85 4.6 40.3 0
02:24 1016 30 845 24.95 7.2 45 83 4.5 40.2 0
02:25 1016 30 845 24.95 7.2 44.9 80 4 39.2 0
02:26 1016 30 845 24.95 6.9 44.4 81 3.9 39 0
02:27 1016 30 845 24.95 6.6 43.9 83 4 39.2 0
02:28 1016 30 845 24.95 6.4 43.6 85 4.1 39.4 0
02:29 1016 30 845 24.95 6.3 43.3 86 4.2 39.5 0
02:30 1016 30 845 24.95 6.2 43.1 89 4.4 40 0
02:31 1016 30 845 24.95 6.4 43.6 87 4.5 40 0
02:32 1016 30 845 24.95 7 44.6 86 4.8 40.6 0
02:33 1016 30 845 24.95 7.6 45.7 81 4.6 40.4 0
02:34 1016 30 845 24.95 8 46.4 80 4.8 40.7 0
02:35 1016 30 845 24.95 8.2 46.7 81 5.2 41.3 0
02:36 1016 30 845 24.95 8.4 47.2 80 5.2 41.4 0
02:37 1016 30 845 24.95 8.5 47.4 80 5.3 41.5 0
02:38 1016 30 845 24.95 8.6 47.5 80 5.3 41.5 0
02:39 1016 30 845 24.95 8.7 47.7 79 5.3 41.5 0
02:40 1016 30 845 24.95 8.8 47.8 79 5.3 41.5 0
02:41 1016 30 845 24.95 8.7 47.7 79 5.3 41.5 0
02:42 1016 30 845 24.95 8.6 47.5 80 5.3 41.5 0
02:43 1016 30 845 24.95 8.4 47.2 78 4.9 40.7 0
02:44 1016 30 845 24.95 8 46.5 79 4.6 40.4 0
02:45 1016 30 845 24.95 7.6 45.7 80 4.3 39.8 0
02:46 1016 30 845 24.95 7.2 44.9 83 4.6 40.2 0
02:47 1016 30 845 24.95 7 44.6 82 4.2 39.5 0
02:48 1016 30 845 24.95 6.8 44.2 83 4.1 39.4 0
02:49 1016 30 845 24.95 6.6 43.8 84 4.1 39.4 0
02:50 1016 30 845 24.95 6.4 43.5 84 3.8 38.9 0
02:51 1016 30 845 24.95 6.2 43.1 84 3.6 38.5 0
02:52 1016 30 845 24.95 5.9 42.6 85 3.6 38.5 0
02:53 1016 30 845 24.95 5.7 42.3 86 3.6 38.5 0
02:54 1016 30 845 24.95 5.5 42 87 3.5 38.3 0
02:55 1016 30 845 24.95 5.5 42 90 4 39.2 0
02:56 1016 30 845 24.95 5.8 42.4 90 4.2 39.6 0
02:57 1016 30 845 24.95 6 42.7 86 3.9 39 0
02:58 1016 30 845 24.95 5.9 42.7 87 3.9 39 0
02:59 1016 30 845 24.95 5.8 42.4 85 3.4 38.1 0
03:00 1016 30 845 24.95 5.5 41.9 87 3.5 38.2 0
03:01 1016 30 845 24.95 5.3 41.6 87 3.3 37.9 0
03:02 1016 30 845 24.95 5.1 41.2 86 3 37.4 0
03:03 1016 30 845 24.95 4.8 40.7 88 3 37.4 0
03:04 1016 30 845 24.95 4.7 40.4 88 2.9 37.2 0
03:05 1016 30 845 24.95 4.5 40.1 90 3 37.4 0
03:06 1016 30 845 24.95 4.5 40.1 91 3.1 37.6 0
03:07 1016 30 845 24.95 4.5 40.1 91 3.2 37.8 0
03:08 1016 30 845 24.95 4.6 40.2 91 3.2 37.7 0
03:09 1016 30 845 24.95 4.6 40.3 91 3.2 37.8 0
03:10 1016 30 845 24.95 4.6 40.3 89 3 37.4 0
03:11 1016 30 845 24.95 4.5 40.1 89 2.9 37.2 0
03:12 1016 30 845 24.95 4.3 39.8 90 2.8 37.1 0
03:13 1016 30 845 24.95 4.3 39.8 91 3 37.4 0
03:14 1016 30 845 24.95 4.3 39.8 91 3 37.5 0
03:15 1016 30 845 24.95 4.3 39.8 91 3 37.3 0
03:16 1016 30 845 24.95 4.3 39.8 91 3 37.5 0
03:17 1016 30 845 24.95 4.3 39.8 90 2.8 37.1 0
03:18 1016 30 845 24.95 4.3 39.7 91 2.9 37.1 0
03:19 1016 30 845 24.95 4.2 39.6 90 2.7 36.9 0
03:20 1016 30 845 24.95 4.1 39.4 90 2.7 36.8 0
03:21 1016 30 845 24.95 4 39.2 91 2.6 36.7 0
03:22 1016 30 845 24.95 3.9 39.1 91 2.6 36.7 0
03:23 1016 30 845 24.95 4 39.1 91 2.7 36.8 0
03:24 1016 30 845 24.95 3.9 39.1 92 2.7 36.8 0
03:25 1016 30 845 24.95 3.9 39.1 92 2.7 36.8 0
03:26 1016 30 845 24.95 3.9 39 91 2.6 36.7 0
03:27 1016 30 845 24.95 3.8 38.8 92 2.6 36.6 0
03:28 1016 30 845 24.95 3.8 38.8 91 2.5 36.5 0
03:29 1016 30 845 24.95 3.8 38.8 92 2.5 36.5 0
03:30 1016 30 845 24.95 3.7 38.7 91 2.5 36.4 0
03:31 1016 30 845 24.95 3.6 38.6 92 2.4 36.4 0
03:32 1016 30 845 24.95 3.6 38.5 92 2.5 36.4 0
03:33 1016 30 845 24.95 3.6 38.5 92 2.4 36.3 0
03:34 1016 30 845 24.95 3.5 38.3 92 2.3 36.2 0
03:35 1016 30 845 24.95 3.5 38.3 92 2.4 36.3 0
03:36 1016 30 845 24.95 3.5 38.3 93 2.5 36.5 0
03:37 1016 30 845 24.95 3.5 38.4 94 2.6 36.7 0
03:38 1016 30 845 24.95 3.7 38.6 94 2.7 36.9 0
03:39 1016 30 845 24.95 3.8 38.8 93 2.8 37 0
03:40 1016 30 845 24.95 3.8 38.8 93 2.7 36.9 0
03:41 1016 30 845 24.95 3.8 38.9 93 2.7 36.9 0
03:42 1016 30 845 24.95 3.8 38.9 93 2.8 37 0
03:43 1016 30 845 24.95 3.9 39 93 2.9 37.2 0
03:44 1016 30 845 24.95 4 39.1 93 2.9 37.2 0
03:45 1016 30 845 24.95 4 39.2 92 2.8 37 0
03:46 1016 30 845 24.95 3.9 39.1 91 2.5 36.6 0
03:47 1016 30 845 24.95 3.8 38.9 91 2.5 36.5 0
03:48 1016 30 845 24.95 3.8 38.8 92 2.6 36.7 0
03:49 1016 30 845 24.95 3.8 38.9 92 2.7 36.9 0
03:50 1016 30 845 24.95 3.9 39.1 93 2.9 37.3 0
03:51 1016 30 845 24.95 4 39.2 93 2.9 37.2 0
03:52 1016 30 845 24.95 4 39.3 93 3.1 37.5 0
03:53 1016 30 845 24.95 4.2 39.5 92 3 37.4 0
03:54 1016 30 845 24.95 4.2 39.5 91 2.9 37.3 0
03:55 1016 30 845 24.95 4.1 39.5 90 2.7 36.9 0
03:56 1016 30 845 24.95 4.1 39.3 93 3 37.3 0
03:57 1016 30 845 24.95 4.2 39.6 93 3.2 37.7 0
03:58 1016 30 845 24.95 4.4 39.9 93 3.3 38 0
03:59 1016 30 845 24.95 4.6 40.2 92 3.4 38 0
04:00 1016 30 845 24.95 4.7 40.4 91 3.3 37.9 0
04:01 1016 30 845 24.95 4.6 40.3 90 3.2 37.7 0
04:02 1016 30 845 24.95 4.6 40.2 88 2.8 37 0
04:03 1016 30 845 24.95 4.3 39.8 89 2.6 36.8 0
04:04 1016 30 845 24.95 4.1 39.5 91 2.7 36.9 0
04:05 1016 30 845 24.95 4.1 39.4 91 2.8 37.1 0
04:06 1016 30 845 24.95 4.1 39.4 92 3 37.4 0
04:07 1016 30 845 24.95 4.2 39.5 91 2.9 37.2 0
04:08 1016 30 845 24.95 4.2 39.5 91 2.9 37.2 0
04:09 1016 30 845 24.95 4.2 39.6 92 3 37.4 0
04:10 1016 30 845 24.95 4.3 39.7 92 3 37.4 0
04:11 1016 30 845 24.95 4.3 39.8 91 3 37.3 0
04:12 1016 30 845 24.95 4.3 39.8 92 3.1 37.5 0
04:13 1016 30 845 24.95 4.4 39.9 91 3.1 37.5 0
04:14 1016 30 845 24.95 4.4 39.9 92 3.2 37.8 0
04:15 1016 30 845 24.95 4.5 40.1 92 3.4 38 0
04:16 1016 30 845 24.95 4.6 40.3 92 3.4 38.2 0
04:17 1016 30 845 24.95 4.7 40.5 92 3.5 38.4 0
04:18 1016 30 845 24.95 4.8 40.7 91 3.5 38.4 0
04:19 1016 30 845 24.95 4.9 40.8 91 3.5 38.2 0
04:20 1016 30 845 24.95 4.9 40.9 90 3.5 38.3 0
04:21 1016 30 845 24.95 5 40.9 90 3.5 38.3 0
04:22 1016 30 845 24.95 4.9 40.9 91 3.5 38.3 0
04:23 1016 30 845 24.95 4.9 40.9 91 3.6 38.4 0
04:24 1016 30 845 24.95 4.9 40.9 91 3.6 38.5 0
04:25 1016 30 845 24.95 5 41 91 3.7 38.7 0
04:26 1016 30 845 24.95 5 41.1 91 3.7 38.6 0
04:27 1016 30 845 24.95 5.1 41.1 91 3.7 38.7 0
04:28 1016 30 845 24.95 5.1 41.1 91 3.7 38.7 0
04:29 1016 30 845 24.95 5.1 41.1 91 3.7 38.7 0
04:30 1016 30 845 24.95 5.1 41.1 91 3.7 38.7 0
04:31 1016 30 845 24.95 5.1 41.2 91 3.8 38.9 0
04:32 1016 30 845 24.95 5.1 41.2 92 3.9 39 0
04:33 1016 30 845 24.95 5.1 41.2 91 3.8 38.9 0
04:34 1016 30 845 24.95 5.1 41.2 91 3.8 38.8 0
04:35 1016 30 845 24.95 5.1 41.1 92 3.8 38.8 0
04:36 1016 30 845 24.95 5 41.1 92 3.8 38.8 0
04:37 1016 30 845 24.95 5.1 41.2 92 3.9 39.1 0
04:38 1016 30 845 24.95 5.2 41.3 92 4 39.1 0
04:39 1016 30 845 24.95 5.2 41.4 92 4 39.2 0
04:40 1016 30 845 24.95 5.3 41.5 92 4.1 39.4 0
04:41 1016 30 845 24.95 5.4 41.6 92 4.1 39.5 0
04:42 1016 30 845 24.95 5.5 41.9 92 4.3 39.7 0
04:43 1016 30 845 24.95 5.7 42.2 91 4.3 39.7 0
04:44 1016 30 845 24.95 5.8 42.5 89 4.1 39.4 0
04:45 1016 30 845 24.95 5.7 42.3 89 4 39.2 0
04:46 1016 30 845 24.95 5.7 42.3 90 4.1 39.5 0
04:47 1016 30 845 24.95 5.7 42.3 89 4 39.2 0
04:48 1016 30 845 24.95 5.7 42.2 89 4.1 39.3 0
04:49 1016 30 845 24.95 5.7 42.2 89 4 39.2 0
04:50 1016 30 845 24.95 5.7 42.3 89 4.1 39.3 0
04:51 1016 30 845 24.95 5.8 42.4 90 4.2 39.6 0
04:52 1016 30 845 24.95 5.9 42.6 90 4.4 40 0
04:53 1016 30 845 24.95 6.1 43 89 4.4 39.9 0
04:54 1016 30 845 24.95 6.3 43.3 87 4.3 39.7 0
04:55 1016 30 845 24.95 6.2 43.2 85 4 39.1 0
04:56 1016 30 845 24.95 6 42.9 87 4.1 39.4 0
04:57 1016 30 845 24.95 6 42.8 88 4.2 39.5 0
04:58 1016 30 845 24.95 6 42.7 88 4.1 39.4 0
04:59 1016 30 845 24.95 5.9 42.7 88 4.1 39.3 0
05:00 1016 30 845 24.95 5.8 42.5 88 3.9 39 0
05:01 1016 30 845 24.95 5.7 42.3 88 3.9 38.9 0
05:02 1016 30 845 24.95 5.6 42.1 88 3.8 38.8 0
05:03 1016 30 845 24.95 5.6 42 88 3.7 38.7 0
05:04 1016 30 845 24.95 5.5 41.8 89 3.7 38.7 0
05:05 1016 30 845 24.95 5.3 41.6 89 3.7 38.7 0
05:06 1016 30 845 24.95 5.3 41.6 90 3.8 38.9 0
05:07 1016 30 845 24.95 5.4 41.7 89 3.8 38.8 0
05:08 1016 30 845 24.95 5.3 41.6 90 3.8 38.8 0
05:09 1016 30 845 24.95 5.3 41.6 89 3.7 38.6 0
05:10 1016 30 845 24.95 5.3 41.5 89 3.6 38.5 0
05:11 1016 30 845 24.95 5.2 41.3 89 3.5 38.3 0
05:12 1016 30 845 24.95 5 41.1 90 3.5 38.3 0
05:13 1016 30 845 24.95 5.1 41.1 90 3.5 38.3 0
05:14 1016 30 845 24.95 5 41 91 3.6 38.4 0
05:15 1016 30 845 24.95 5.1 41.2 91 3.7 38.6 0
05:16 1016 30 845 24.95 5.1 41.2 89 3.5 38.4 0
05:17 1016 30 845 24.95 5.1 41.1 88 3.3 38 0
05:18 1016 30 845 24.95 5 41 90 3.5 38.3 0
05:19 1016 30 845 24.95 4.9 40.8 88 3.1 37.6 0
05:20 1016 30 845 24.95 4.6 40.4 89 3.1 37.5 0
05:21 1016 30 845 24.95 4.6 40.4 91 3.3 38 0
05:22 1016 30 845 24.95 4.7 40.4 90 3.1 37.6 0
05:23 1016 30 845 24.95 4.6 40.4 90 3.1 37.6 0
05:24 1016 30 845 24.95 4.6 40.2 90 3 37.4 0
05:25 1016 30 845 24.95 4.5 40 89 2.9 37.2 0
05:26 1016 30 845 24.95 4.4 39.9 90 2.9 37.3 0
05:27 1016 30 845 24.95 4.3 39.7 90 2.8 37.1 0
05:28 1016 30 845 24.95 4.2 39.6 90 2.8 37 0
05:29 1016 30 845 24.95 4.1 39.4 91 2.8 37 0
05:30 1016 30 845 24.95 4.1 39.4 92 2.9 37.2 0
05:31 1016 30 845 24.95 4.2 39.5 93 3.1 37.6 0
05:32 1016 30 845 24.95 4.3 39.7 93 3.2 37.8 0
05:33 1015 29.97 845 24.95 4.4 40 93 3.4 38.1 0
05:34 1015 29.97 845 24.95 4.7 40.4 93 3.6 38.5 0
05:35 1016 30 845 24.95 4.9 40.7 91 3.5 38.3 0
05:36 1016 30 845 24.95 4.9 40.8 89 3.3 37.9 0
05:37 1016 30 845 24.95 4.8 40.6 89 3.1 37.6 0
05:38 1016 30 845 24.95 4.6 40.3 89 3 37.4 0
05:39 1016 30 845 24.95 4.5 40.1 91 3.1 37.6 0
05:40 1016 30 845 24.95 4.6 40.3 92 3.5 38.3 0
05:41 1016 30 845 24.95 4.8 40.7 91 3.4 38.2 0
05:42 1016 30 845 24.95 4.8 40.7 90 3.4 38.1 0
05:43 1016 30 845 24.95 4.9 40.8 91 3.5 38.2 0
05:44 1016 30 845 24.95 4.9 40.8 91 3.4 38.2 0
05:45 1016 30 845 24.95 4.9 40.8 91 3.6 38.4 0
05:46 1016 30 845 24.95 5 41 92 3.8 38.8 0
05:47 1016 30 845 24.95 5.2 41.4 91 4 39.1 0
05:48 1016 30 845 24.95 5.4 41.7 91 4 39.2 0
05:49 1016 30 845 24.95 5.6 42.1 89 4 39.2 0
05:50 1016 30 845 24.95 5.7 42.3 89 4 39.2 0
05:51 1016 30 845 24.95 5.9 42.6 87 3.9 39.1 0
05:52 1016 30 845 24.95 5.9 42.7 87 4 39.2 0
05:53 1016 30 845 24.95 5.9 42.6 87 3.9 39.1 0
05:54 1016 30 845 24.95 5.8 42.4 89 4.1 39.4 0
05:55 1016 30 845 24.95 5.8 42.5 89 4.2 39.6 0
05:56 1016 30 845 24.95 5.9 42.6 89 4.2 39.6 0
05:57 1016 30 845 24.95 6 42.9 88 4.2 39.6 0
05:58 1016 30 845 24.95 6.1 43 88 4.3 39.8 0
05:59 1016 30 845 24.95 6.1 43 89 4.4 39.9 0
06:00 1016 30 845 24.95 6.1 42.9 89 4.4 39.9 0
06:01 1016 30 845 24.95 6.1 42.9 89 4.4 39.9 0
06:02 1016 30 845 24.95 6.1 43 89 4.4 39.9 0
06:03 1016 30 845 24.95 6.2 43.1 89 4.5 40.1 0
06:04 1016 30 845 24.95 6.2 43.2 88 4.5 40 0
06:05 1016 30 845 24.95 6.4 43.5 88 4.5 40 0
06:06 1016 30 845 24.95 6.5 43.7 87 4.5 40.1 0
06:07 1016 30 845 24.95 6.6 43.9 86 4.5 40.1 0
06:08 1016 30 845 24.95 6.9 44.4 85 4.5 40.1 0
06:09 1016 30 845 24.95 7 44.6 84 4.5 40.1 0
06:10 1016 30 845 24.95 7 44.7 84 4.5 40.2 0
06:11 1016 30 845 24.95 7 44.6 84 4.5 40.2 0
06:12 1016 30 845 24.95 7 44.6 85 4.6 40.3 0
06:13 1016 30 845 24.95 7 44.6 85 4.7 40.4 0
06:14 1016 30 845 24.95 6.9 44.4 86 4.7 40.5 0
06:15 1016 30 845 24.95 6.7 44.1 86 4.6 40.3 0
06:16 1016 30 845 24.95 6.5 43.7 87 4.6 40.3 0
06:17 1016 30 845 24.95 6.4 43.6 88 4.7 40.4 0
06:18 1016 30 845 24.95 6.3 43.4 89 4.7 40.5 0
06:19 1016 30 845 24.95 6.3 43.4 89 4.6 40.4 0
06:20 1016 30 845 24.95 6.4 43.5 89 4.7 40.4 0
06:21 1016 30 845 24.95 6.5 43.6 89 4.7 40.5 0
06:22 1016 30 845 24.95 6.5 43.8 89 4.8 40.6 0
06:23 1016 30 845 24.95 6.6 43.8 89 4.8 40.6 0
06:24 1016 30 845 24.95 6.6 43.9 89 4.9 40.8 0
06:25 1016 30 845 24.95 6.6 43.8 89 4.9 40.8 0
06:26 1016 30 845 24.95 6.6 43.8 89 4.8 40.7 0
06:27 1016 30 845 24.95 6.6 43.9 89 4.9 40.7 0
06:28 1016 30 845 24.95 6.6 43.9 88 4.8 40.7 0
06:29 1016 30 845 24.95 6.6 43.9 88 4.9 40.7 0
06:30 1016 30 845 24.95 6.6 43.9 89 4.9 40.8 0
06:31 1016 30 845 24.95 6.6 43.9 89 4.9 40.9 0
06:32 1016 30 845 24.95 6.6 43.8 90 5 40.9 0
06:33 1016 30 845 24.95 6.5 43.8 90 5 40.9 0
06:34 1016 30 845 24.95 6.5 43.7 90 5 41 0
06:35 1016 30 845 24.95 6.5 43.7 90 5 41 0
06:36 1016 30 845 24.95 6.5 43.7 90 5 41 0
06:37 1016 30 845 24.95 6.6 43.9 90 5 41 0
06:38 1016 30 845 24.95 6.7 44 90 5.1 41.1 0
06:39 1016 30 845 24.95 6.6 43.9 90 5.1 41.1 0
06:40 1016 30 845 24.95 6.6 43.9 90 5.1 41.2 0
06:41 1016 30 845 24.95 6.6 44 90 5.1 41.1 0
06:42 1016 30 845 24.95 6.7 44.1 89 5.1 41.1 0
06:43 1016 30 845 24.95 6.8 44.2 90 5.2 41.3 0
06:44 1016 30 845 24.95 6.8 44.2 90 5.2 41.3 0
06:45 1016 30 845 24.95 6.7 44.1 89 5.1 41.2 0
06:46 1016 30 845 24.95 6.8 44.3 89 5.2 41.3 0
06:47 1016 30 845 24.95 6.9 44.4 89 5.2 41.4 0
06:48 1016 30 845 24.95 6.9 44.5 89 5.2 41.3 0
06:49 1016 30 845 24.95 7 44.6 88 5.2 41.3 0
06:50 1016 30 845 24.95 7.1 44.7 88 5.2 41.3 0
06:51 1016 30 845 24.95 7.1 44.8 87 5.1 41.2 0
06:52 1016 30 845 24.95 7.2 44.9 87 5.1 41.2 0
06:53 1016 30 845 24.95 7.2 45 87 5.1 41.2 0
06:54 1016 30 845 24.95 7.2 45 87 5.2 41.3 0
06:55 1016 30 845 24.95 7.2 45 87 5.2 41.3 0
06:56 1015 29.97 845 24.95 7.2 45 87 5.2 41.3 0
06:57 1016 30 845 24.95 7.3 45.1 87 5.2 41.3 0
06:58 1016 30 845 24.95 7.3 45.1 87 5.2 41.4 0
06:59 1016 30 845 24.95 7.2 45 87 5.3 41.5 0
07:00 1016 30 845 24.95 7.1 44.9 88 5.3 41.5 0
07:01 1016 30 845 24.95 7.1 44.8 88 5.2 41.4 0
07:02 1016 30 845 24.95 7.1 44.8 88 5.2 41.4 0
07:03 1016 30 845 24.95 7.1 44.9 88 5.2 41.4 0
07:04 1016 30 845 24.95 7.2 44.9 88 5.2 41.4 0
07:05 1015 29.97 845 24.95 7.2 44.9 87 5.2 41.4 0
07:06 1015 29.97 845 24.95 7.2 45 86 5.1 41.2 0
07:07 1016 30 845 24.95 7.3 45.2 85 5 41 0
07:08 1015 29.97 845 24.95 7.5 45.4 83 4.8 40.7 0
07:09 1015 29.97 845 24.95 7.7 45.8 82 4.8 40.7 0
07:10 1015 29.97 845 24.95 7.9 46.2 82 4.9 40.9 0
07:11 1015 29.97 845 24.95 8 46.5 81 5 41.1 0
07:12 1015 29.97 845 24.95 8.1 46.5 82 5.1 41.2 0
07:13 1015 29.97 845 24.95 8.1 46.5 82 5.3 41.5 0
07:14 1015 29.97 845 24.95 8 46.3 83 5.3 41.5 0
07:15 1015 29.97 845 24.95 7.8 46.1 84 5.3 41.5 0
07:16 1015 29.97 845 24.95 7.7 45.8 85 5.3 41.5 0
07:17 1015 29.97 845 24.95 7.6 45.7 86 5.4 41.7 0
07:18 1015 29.97 845 24.95 7.5 45.4 87 5.4 41.7 0
07:19 1015 29.97 845 24.95 7.3 45.2 87 5.3 41.6 0
07:20 1015 29.97 845 24.95 7.3 45.1 88 5.4 41.7 0
07:21 1015 29.97 845 24.95 7.3 45.1 88 5.4 41.7 0
07:22 1015 29.97 845 24.95 7.2 45 88 5.4 41.7 0
07:23 1016 30 845 24.95 7.2 44.9 88 5.4 41.6 0
07:24 1016 30 845 24.95 7.2 44.9 88 5.4 41.7 0
07:25 1016 30 845 24.95 7.1 44.8 89 5.4 41.7 0
07:26 1015 29.97 845 24.95 7.1 44.8 89 5.4 41.8 0
07:27 1015 29.97 845 24.95 7 44.6 89 5.4 41.7 0
07:28 1015 29.97 845 24.95 7 44.6 90 5.4 41.8 0
07:29 1015 29.97 845 24.95 7.1 44.7 90 5.5 41.9 0
07:30 1015 29.97 845 24.95 7.1 44.7 90 5.5 41.8 0
07:31 1016 30 845 24.95 7.1 44.7 89 5.4 41.8 0
07:32 1016 30 845 24.95 7.1 44.7 89 5.4 41.7 0
07:33 1016 30 845 24.95 7.1 44.8 89 5.4 41.8 0
07:34 1016 30 845 24.95 7.1 44.8 89 5.4 41.7 0
07:35 1016 30 845 24.95 7.2 44.9 89 5.4 41.7 0
07:36 1016 30 845 24.95 7.2 44.9 88 5.4 41.7 0
07:37 1016 30 845 24.95 7.2 45 88 5.4 41.8 0
07:38 1016 30 845 24.95 7.2 45 89 5.5 41.8 0
07:39 1016 30 845 24.95 7.3 45.1 89 5.5 41.9 0
07:40 1016 30 845 24.95 7.2 44.9 89 5.5 41.9 0
07:41 1016 30 845 24.95 7.2 44.9 88 5.4 41.7 0
07:42 1016 30 845 24.95 7.2 45 87 5.2 41.4 0
07:43 1016 30 845 24.95 7.4 45.2 86 5.2 41.3 0
07:44 1016 30 845 24.95 7.5 45.5 86 5.2 41.4 0
07:45 1016 30 845 24.95 7.6 45.6 87 5.5 41.9 0
07:46 1016 30 845 24.95 7.5 45.5 87 5.5 41.9 0
07:47 1016 30 845 24.95 7.5 45.5 86 5.3 41.6 0
07:48 1016 30 845 24.95 7.6 45.7 85 5.3 41.5 0
07:49 1016 30 845 24.95 7.7 45.8 84 5.2 41.3 0
07:50 1016 30 845 24.95 7.9 46.2 82 5 41.1 0
07:51 1016 30 845 24.95 8.1 46.6 82 5.3 41.6 0
07:52 1016 30 845 24.95 8.3 46.9 81 5.2 41.4 0
07:53 1016 30 845 24.95 8.3 47 82 5.5 41.9 0
07:54 1016 30 845 24.95 8.2 46.8 84 5.6 42.1 0
07:55 1016 30 845 24.95 8.1 46.6 85 5.8 42.4 0
07:56 1016 30 845 24.95 8 46.5 82 5.2 41.3 0
07:57 1016 30 845 24.95 8.4 47.2 79 4.9 40.9 0
07:58 1016 30 845 24.95 8.8 47.8 78 5.2 41.3 0
07:59 1016 30 845 24.95 9 48.1 77 5.2 41.3 0
08:00 1016 30 845 24.95 9.1 48.3 77 5.2 41.4 0
08:01 1016 30 845 24.95 9.1 48.4 79 5.7 42.2 0
08:02 1016 30 845 24.95 8.9 48 80 5.6 42.2 0
08:03 1016 30 845 24.95 8.6 47.4 82 5.7 42.2 0
08:04 1016 30 845 24.95 8.3 47 83 5.7 42.2 0
08:05 1016 30 845 24.95 8.2 46.8 83 5.6 42.1 0
08:06 1016 30 845 24.95 8.2 46.8 84 5.6 42.1 0
08:07 1016 30 845 24.95 8.2 46.7 83 5.5 41.9 0
08:08 1016 30 845 24.95 8.2 46.8 83 5.5 42 0
08:09 1016 30 845 24.95 8.3 46.9 83 5.6 42 0
08:10 1016 30 845 24.95 8.3 46.9 83 5.6 42.1 0
08:11 1016 30 845 24.95 8.3 46.9 83 5.6 42.1 0
08:12 1016 30 845 24.95 8.2 46.8 83 5.6 42.1 0
08:13 1016 30 845 24.95 8.2 46.8 84 5.6 42.1 0
08:14 1016 30 845 24.95 8.2 46.8 84 5.6 42.1 0
08:15 1016 30 845 24.95 8.2 46.7 84 5.6 42 0
08:16 1016 30 845 24.95 8.2 46.8 84 5.6 42.1 0
08:17 1016 30 845 24.95 8.2 46.7 84 5.6 42 0
08:18 1016 30 845 24.95 8.2 46.7 84 5.6 42.1 0
08:19 1016 30 845 24.95 8.1 46.7 84 5.6 42.1 0
08:20 1016 30 845 24.95 8.1 46.6 84 5.6 42.1 0
08:21 1016 30 845 24.95 8 46.4 85 5.6 42.1 0
08:22 1016 30 845 24.95 7.9 46.2 86 5.7 42.2 0
08:23 1016 30 845 24.95 7.8 46 86 5.6 42.1 0
08:24 1016 30 845 24.95 7.7 45.9 87 5.6 42.1 0
08:25 1016 30 845 24.95 7.7 45.9 86 5.6 42 0
08:26 1016 30 845 24.95 7.8 46 85 5.5 41.9 0
08:27 1016 30 845 24.95 7.9 46.2 85 5.6 42.1 0
08:28 1016 30 845 24.95 8 46.4 86 5.8 42.4 0
08:29 1016 30 845 24.95 8.1 46.5 86 5.9 42.6 0
08:30 1016 30 845 24.95 8.1 46.6 88 6.2 43.2 0
08:31 1016 30 845 24.95 8.2 46.8 89 6.5 43.7 0
08:32 1016 30 845 24.95 8.4 47.1 89 6.7 44.1 0
08:33 1016 30 845 24.95 8.6 47.5 86 6.4 43.5 0
08:34 1016 30 845 24.95 8.8 47.8 86 6.5 43.7 0
08:35 1016 30 845 24.95 9 48.2 85 6.7 44 0
08:36 1016 30 845 24.95 9.2 48.6 85 6.8 44.2 0
08:37 1016 30 845 24.95 9.5 49.1 85 7.1 44.8 0
08:38 1016 30 845 24.95 9.7 49.5 83 7 44.6 0
08:39 1016 30 845 24.95 9.9 49.9 84 7.4 45.3 0
08:40 1016 30 845 24.95 10.2 50.3 83 7.4 45.3 0
08:41 1016 30 845 24.95 10.4 50.8 79 7 44.5 0
08:42 1016 30 845 24.95 10.6 51.1 78 6.9 44.4 0
08:43 1016 30 845 24.95 10.8 51.4 74 6.5 43.6 0
08:44 1016 30 845 24.95 10.9 51.7 72 6.1 43 0
08:45 1016 30 845 24.95 11 51.9 75 6.7 44.1 0
08:46 1016 30 845 24.95 11.2 52.2 73 6.6 43.9 0
08:47 1016 30 845 24.95 11.3 52.3 75 7.1 44.7 0
08:48 1016 30 845 24.95 11.3 52.3 73 6.7 44.1 0
08:49 1016 30 845 24.95 11.4 52.5 72 6.5 43.7 0
08:50 1016 30 845 24.95 11.4 52.6 72 6.5 43.7 0
08:51 1016 30 845 24.95 11.5 52.6 73 6.9 44.4 0
08:52 1016 30 845 24.95 11.5 52.7 75 7.3 45.2 0
08:53 1016 30 845 24.95 11.6 52.8 70 6.2 43.2 0
08:54 1016 30 845 24.95 11.5 52.7 70 6.2 43.2 0
08:55 1016 30 845 24.95 11.4 52.5 71 6.4 43.4 0
08:56 1016 30 845 24.95 11.3 52.4 71 6.4 43.5 0
08:57 1016 30 845 24.95 11.2 52.2 72 6.4 43.6 0
08:58 1016 30 845 24.95 11.1 52.1 73 6.5 43.7 0
08:59 1016 30 845 24.95 11 51.8 74 6.6 43.9 0
09:00 1016 30 845 24.95 10.9 51.6 75 6.6 43.8 0
09:01 1016 30 845 24.95 10.8 51.4 75 6.6 43.9 0
09:02 1016 30 845 24.95 10.7 51.3 77 6.9 44.4 0
09:03 1016 30 845 24.95 10.6 51.1 76 6.5 43.7 0
09:04 1016 30 845 24.95 10.6 51 76 6.5 43.7 0
09:05 1016 30 845 24.95 10.6 51 76 6.5 43.8 0
09:06 1016 30 845 24.95 10.5 50.9 76 6.5 43.7 0
09:07 1016 30 845 24.95 10.5 50.9 77 6.6 43.8 0
09:08 1016 30 845 24.95 10.5 50.8 75 6.2 43.2 0
09:09 1016 30 845 24.95 10.5 50.8 77 6.6 43.8 0
09:10 1016 30 845 24.95 10.5 50.9 77 6.7 44 0
09:11 1016 30 845 24.95 10.5 50.8 75 6.2 43.1 0
09:12 1016 30 845 24.95 10.5 50.9 77 6.6 43.9 0
09:13 1016 30 845 24.95 10.4 50.8 76 6.5 43.7 0
09:14 1016 30 845 24.95 10.4 50.8 76 6.4 43.5 0
09:15 1016 30 845 24.95 10.4 50.8 76 6.4 43.5 0
09:16 1016 30 845 24.95 10.4 50.7 78 6.7 44.1 0
09:17 1016 30 845 24.95 10.4 50.6 75 6.1 43 0
09:18 1016 30 845 24.95 10.3 50.6 75 6.2 43.1 0
09:19 1016 30 845 24.95 10.3 50.6 76 6.3 43.4 0
09:20 1016 30 845 24.95 10.3 50.6 74 5.9 42.6 0
09:21 1016 30 845 24.95 10.3 50.5 77 6.4 43.6 0
09:22 1016 30 845 24.95 10.3 50.6 75 6.1 43 0
09:23 1016 30 845 24.95 10.3 50.5 76 6.3 43.3 0
09:24 1016 30 845 24.95 10.3 50.6 78 6.6 43.9 0
09:25 1016 30 845 24.95 10.4 50.6 78 6.7 44.1 0
09:26 1016 30 845 24.95 10.4 50.6 75 6.2 43.1 0
09:27 1016 30 845 24.95 10.3 50.6 77 6.5 43.7 0
09:28 1016 30 845 24.95 10.3 50.6 77 6.4 43.5 0
09:29 1016 30 845 24.95 10.3 50.5 75 6 42.8 0
09:30 1016 30 845 24.95 10.2 50.3 75 5.9 42.6 0
09:31 1016 30 845 24.95 10.1 50.1 78 6.4 43.5 0
09:32 1016 30 845 24.95 10.1 50.1 77 6.3 43.3 0
09:33 1016 30 845 24.95 10.1 50.1 77 6.3 43.3 0
09:34 1016 30 845 24.95 10.1 50.1 79 6.6 43.9 0
09:35 1016 30 845 24.95 10.1 50.1 78 6.4 43.5 0
09:36 1016 30 845 24.95 10.1 50.2 78 6.5 43.8 0
09:37 1016 30 845 24.95 10.1 50.3 77 6.4 43.5 0
09:38 1016 30 845 24.95 10.2 50.3 78 6.5 43.7 0
09:39 1016 30 845 24.95 10.2 50.3 79 6.7 44.1 0
09:40 1016 30 845 24.95 10.2 50.3 78 6.6 43.8 0
09:41 1016 30 845 24.95 10.2 50.3 75 6 42.9 0
09:42 1016 30 845 24.95 10.2 50.4 77 6.4 43.5 0
09:43 1016 30 845 24.95 10.2 50.4 77 6.4 43.6 0
09:44 1016 30 845 24.95 10.3 50.6 78 6.6 43.9 0
09:45 1016 30 845 24.95 10.4 50.6 77 6.6 43.8 0
09:46 1016 30 845 24.95 10.4 50.7 78 6.8 44.2 0
09:47 1016 30 845 24.95 10.5 50.9 75 6.2 43.2 0
09:48 1016 30 845 24.95 10.5 50.9 76 6.4 43.5 0
09:49 1016 30 845 24.95 10.6 51.1 76 6.6 43.8 0
09:50 1016 30 845 24.95 10.7 51.2 78 6.9 44.5 0
09:51 1016 30 845 24.95 10.7 51.3 77 6.8 44.2 0
09:52 1016 30 845 24.95 10.8 51.4 75 6.6 43.8 0
09:53 1016 30 845 24.95 10.9 51.6 74 6.5 43.7 0
09:54 1016 30 845 24.95 10.9 51.7 75 6.7 44 0
09:55 1016 30 845 24.95 11 51.7 73 6.4 43.5 0
09:56 1016 30 845 24.95 10.9 51.7 72 6.1 43 0
09:57 1016 30 845 24.95 11 51.7 72 6.1 42.9 0
09:58 1016 30 845 24.95 11 51.7 72 6.2 43.1 0
09:59 1016 30 845 24.95 11 51.7 72 6.2 43.2 0
10:00 1016 30 845 24.95 11 51.7 70 5.8 42.5 0
10:01 1016 30 845 24.95 11 51.7 71 5.9 42.6 0
10:02 1016 30 845 24.95 11 51.8 74 6.6 43.8 0
10:03 1016 30 845 24.95 11 51.9 72 6.2 43.2 0
10:04 1016 30 845 24.95 11.1 51.9 74 6.7 44 0
10:05 1016 30 845 24.95 11.1 52 71 6.1 43 0
10:06 1016 30 845 24.95 11.1 52 72 6.2 43.2 0
10:07 1016 30 845 24.95 11.2 52.1 71 6.2 43.1 0
10:08 1016 30 845 24.95 11.2 52.1 72 6.3 43.4 0
10:09 1016 30 845 24.95 11.2 52.2 73 6.5 43.7 0
10:10 1016 30 845 24.95 11.3 52.3 72 6.4 43.6 0
10:11 1016 30 845 24.95 11.3 52.3 74 6.8 44.2 0
10:12 1016 30 845 24.95 11.3 52.3 73 6.6 43.9 0
10:13 1016 30 845 24.95 11.3 52.3 69 5.9 42.6 0
10:14 1016 30 845 24.95 11.3 52.4 71 6.3 43.4 0
10:15 1016 30 845 24.95 11.3 52.4 73 6.6 43.9 0
10:16 1016 30 845 24.95 11.3 52.4 74 6.8 44.3 0
10:17 1016 30 845 24.95 11.4 52.5 76 7.3 45.2 0
10:18 1016 30 845 24.95 11.6 52.8 74 7.1 44.8 0
10:19 1016 30 845 24.95 11.6 53 71 6.6 43.8 0
10:20 1016 30 845 24.95 11.6 52.8 71 6.5 43.8 0
10:21 1016 30 845 24.95 11.5 52.6 69 6.1 43 0
10:22 1016 30 845 24.95 11.4 52.5 69 5.9 42.6 0
10:23 1016 30 845 24.95 11.5 52.7 68 5.7 42.3 0
10:24 1016 30 845 24.95 11.6 52.9 70 6.3 43.3 0
10:25 1016 30 845 24.95 11.9 53.4 73 7.2 45 0
10:26 1016 30 845 24.95 12.1 53.9 68 6.5 43.7 0
10:27 1016 30 845 24.95 12.3 54.1 66 6.3 43.3 0
10:28 1016 30 845 24.95 12.3 54.1 67 6.3 43.4 0
10:29 1016 30 845 24.95 12.2 54 70 6.9 44.5 0
10:30 1016 30 845 24.95 12.3 54.1 67 6.3 43.3 0
10:31 1016 30 845 24.95 12.2 53.9 69 6.6 43.9 0
10:32 1016 30 845 24.95 12.1 53.9 65 5.7 42.3 0
10:33 1016 30 845 24.95 12.1 53.9 66 6 42.8 0
10:34 1016 30 845 24.95 12.1 53.8 63 5.4 41.7 0
10:35 1016 30 845 24.95 12.2 53.9 67 6.3 43.4 0
10:36 1016 30 845 24.95 12.4 54.2 68 6.6 44 0
10:37 1016 30 845 24.95 12.7 54.8 65 6.3 43.3 0
10:38 1016 30 845 24.95 12.8 55 70 7.5 45.5 0
10:39 1016 30 845 24.95 12.8 55 65 6.3 43.3 0
10:40 1016 30 845 24.95 12.8 55 66 6.5 43.8 0
10:41 1016 30 845 24.95 12.7 54.8 64 6.1 43 0
10:42 1016 30 845 24.95 12.6 54.7 65 6.3 43.3 0
10:43 1016 30 845 24.95 12.6 54.7 65 6.3 43.3 0
10:44 1016 30 845 24.95 12.6 54.7 64 6.1 43 0
10:45 1016 30 845 24.95 12.6 54.7 65 6.2 43.1 0
10:46 1016 30 845 24.95 12.7 54.8 63 6 42.7 0
10:47 1016 30 845 24.95 12.6 54.7 65 6.2 43.2 0
10:48 1016 30 845 24.95 12.7 54.9 64 6.2 43.2 0
10:49 1016 30 845 24.95 12.7 54.9 64 6.2 43.1 0
10:50 1016 30 845 24.95 12.8 55 65 6.4 43.5 0
10:51 1016 30 845 24.95 12.8 55 64 6.3 43.3 0
10:52 1016 30 845 24.95 12.8 55 62 5.7 42.3 0
10:53 1016 30 845 24.95 12.8 55.1 65 6.5 43.7 0
10:54 1016 30 845 24.95 12.9 55.1 64 6.3 43.3 0
10:55 1016 30 845 24.95 12.9 55.2 60 5.4 41.7 0
10:56 1016 30 845 24.95 12.9 55.2 63 6.2 43.2 0
10:57 1016 30 845 24.95 12.9 55.2 63 6 42.9 0
10:58 1016 30 845 24.95 12.9 55.2 63 6 42.7 0
10:59 1016 30 845 24.95 12.9 55.1 66 6.7 44.1 0
11:00 1016 30 845 24.95 12.9 55.1 64 6.3 43.3 0
11:01 1016 30 845 24.95 12.9 55.1 64 6.2 43.2 0
11:02 1016 30 845 24.95 12.8 55.1 66 6.7 44 0
11:03 1016 30 845 24.95 12.8 55 67 6.8 44.3 0
11:04 1016 30 845 24.95 12.8 55 62 5.8 42.5 0
11:05 1016 30 845 24.95 12.7 54.9 65 6.4 43.5 0
11:06 1016 30 845 24.95 12.7 54.9 64 6.1 43 0
11:07 1016 30 845 24.95 12.7 54.9 63 5.9 42.5 0
11:08 1016 30 845 24.95 12.7 54.8 67 6.7 44.1 0
11:09 1016 30 845 24.95 12.7 54.8 65 6.2 43.2 0
11:10 1016 30 845 24.95 12.7 54.8 65 6.4 43.5 0
11:11 1016 30 845 24.95 12.7 54.8 65 6.2 43.2 0
11:12 1016 30 845 24.95 12.7 54.9 66 6.6 43.9 0
11:13 1016 30 845 24.95 12.9 55.2 68 7.2 45 0
11:14 1016 30 845 24.95 13 55.5 58 5 40.9 0
11:15 1016 30 845 24.95 13.2 55.7 61 6 42.8 0
11:16 1016 30 845 24.95 13.2 55.8 63 6.4 43.4 0
11:17 1016 30 845 24.95 13.3 56 62 6.3 43.3 0
11:18 1016 30 845 24.95 13.3 55.9 65 6.9 44.4 0
11:19 1016 30 845 24.95 13.3 55.9 63 6.6 43.8 0
11:20 1016 30 845 24.95 13.3 55.9 64 6.7 44 0
11:21 1016 30 845 24.95 13.3 56 65 6.9 44.4 0
11:22 1016 30 845 24.95 13.3 55.9 65 6.8 44.3 0
11:23 1016 30 845 24.95 13.4 56.1 63 6.6 43.9 0
11:24 1016 30 845 24.95 13.5 56.2 64 6.8 44.2 0
11:25 1016 30 845 24.95 13.5 56.3 60 6.1 43 0
11:26 1016 30 845 24.95 13.6 56.4 58 5.6 42 0
11:27 1016 30 845 24.95 13.5 56.4 59 5.7 42.2 0
11:28 1016 30 845 24.95 13.5 56.3 54 4.6 40.2 0
11:29 1016 30 845 24.95 13.5 56.2 54 4.4 39.9 0
11:30 1016 30 845 24.95 13.4 56.2 54 4.3 39.7 0
11:31 1016 30 845 24.95 13.5 56.2 54 4.3 39.8 0
11:32 1016 30 845 24.95 13.5 56.4 60 5.9 42.6 0
11:33 1016 30 845 24.95 13.6 56.4 60 5.9 42.7 0
11:34 1016 30 845 24.95 13.6 56.4 55 4.7 40.5 0
11:35 1016 30 845 24.95 13.5 56.3 55 4.6 40.2 0
11:36 1016 30 845 24.95 13.4 56.2 56 4.9 40.7 0
11:37 1016 30 845 24.95 13.4 56.1 55 4.7 40.4 0
11:38 1016 30 845 24.95 13.4 56.1 54 4.3 39.7 0
11:39 1016 30 845 24.95 13.3 56 54 4.4 39.9 0
11:40 1016 30 845 24.95 13.4 56.1 56 4.7 40.5 0
11:41 1016 30 845 24.95 13.5 56.2 55 4.7 40.4 0
11:42 1016 30 845 24.95 13.5 56.4 54 4.5 40.1 0
11:43 1016 30 845 24.95 13.6 56.5 55 4.9 40.8 0
11:44 1016 30 845 24.95 13.7 56.7 52 4.2 39.6 0
11:45 1016 30 845 24.95 13.9 56.9 54 4.9 40.7 0
11:46 1016 30 845 24.95 13.9 57.1 53 4.6 40.2 0
11:47 1016 30 845 24.95 14 57.2 59 6.1 43 0
11:48 1016 30 845 24.95 14.1 57.3 59 6.2 43.1 0
11:49 1016 30 845 24.95 14.2 57.5 53 4.9 40.8 0
11:50 1016 30 845 24.95 14.2 57.6 57 5.9 42.7 0
11:51 1016 30 845 24.95 14.3 57.8 57 5.9 42.7 0
11:52 1016 30 845 24.95 14.4 57.9 53 5.1 41.2 0
11:53 1016 30 845 24.95 14.4 57.9 55 5.5 42 0
11:54 1016 30 845 24.95 14.3 57.7 51 4.4 39.9 0
11:55 1016 30 845 24.95 14.1 57.4 53 4.7 40.5 0
11:56 1016 30 845 24.95 14 57.2 61 6.6 44 0
11:57 1016 30 845 24.95 14 57.3 54 5 40.9 0
11:58 1016 30 845 24.95 14.1 57.4 49 3.5 38.4 0
11:59 1016 30 845 24.95 14.1 57.3 52 4.4 39.9 0
12:00 1016 30 845 24.95 14 57.3 48 3.4 38.1 0
12:01 1016 30 845 24.95 14 57.2 54 4.9 40.7 0
12:02 1016 30 845 24.95 14.1 57.4 53 4.7 40.4 0
12:03 1016 30 845 24.95 14.3 57.8 49 3.9 39.1 0
12:04 1016 30 845 24.95 14.4 58 50 4.3 39.7 0
12:05 1016 30 845 24.95 14.4 57.9 51 4.4 40 0
12:06 1016 30 845 24.95 14.3 57.7 51 4.5 40.1 0
12:07 1016 30 845 24.95 14.2 57.6 51 4.3 39.8 0
12:08 1015 29.97 845 24.95 14.1 57.4 51 4.3 39.8 0
12:09 1015 29.97 845 24.95 14.1 57.4 48 3.5 38.3 0
12:10 1016 30 845 24.95 14.1 57.4 50 4 39.2 0
12:11 1016 30 845 24.95 14.2 57.5 50 3.9 39 0
12:12 1015 29.97 845 24.95 14.2 57.6 47 3.1 37.6 0
12:13 1016 30 845 24.95 14.2 57.6 50 4 39.3 0
12:14 1015 29.97 845 24.95 14.3 57.8 47 3.3 38 0
12:15 1016 30 845 24.95 14.3 57.8 48 3.7 38.6 0
12:16 1015 29.97 845 24.95 14.4 57.9 49 3.9 38.9 0
12:17 1015 29.97 845 24.95 14.5 58 48 3.8 38.8 0
12:18 1015 29.97 845 24.95 14.4 58 47 3.5 38.2 0
12:19 1015 29.97 845 24.95 14.4 58 52 4.8 40.6 0
12:20 1015 29.97 845 24.95 14.4 57.9 47 3.3 37.9 0
12:21 1015 29.97 845 24.95 14.4 57.9 50 4.1 39.3 0
12:22 1015 29.97 845 24.95 14.3 57.8 52 4.7 40.4 0
12:23 1015 29.97 845 24.95 14.4 57.8 49 3.9 39.1 0
12:24 1015 29.97 845 24.95 14.3 57.8 48 3.6 38.5 0
12:25 1015 29.97 845 24.95 14.3 57.8 48 3.6 38.5 0
12:26 1015 29.97 845 24.95 14.3 57.7 48 3.5 38.2 0
12:27 1015 29.97 845 24.95 14.3 57.7 48 3.6 38.6 0
12:28 1015 29.97 845 24.95 14.3 57.7 49 3.7 38.7 0
12:29 1015 29.97 845 24.95 14.3 57.7 51 4.3 39.8 0
12:30 1015 29.97 845 24.95 14.3 57.7 52 4.5 40.1 0
12:31 1015 29.97 845 24.95 14.3 57.7 50 4.2 39.6 0
12:32 1015 29.97 845 24.95 14.3 57.7 50 4.1 39.4 0
12:33 1015 29.97 845 24.95 14.3 57.8 53 4.8 40.7 0
12:34 1015 29.97 845 24.95 14.3 57.7 50 4 39.1 0
12:35 1015 29.97 845 24.95 14.3 57.7 53 4.8 40.6 0
12:36 1015 29.97 845 24.95 14.3 57.8 47 3.4 38 0
12:37 1015 29.97 845 24.95 14.3 57.8 50 4.2 39.6 0
12:38 1015 29.97 845 24.95 14.3 57.8 50 4.1 39.3 0
12:39 1015 29.97 845 24.95 14.4 57.9 47 3.4 38.1 0
12:40 1015 29.97 845 24.95 14.4 57.9 49 3.8 38.9 0
12:41 1015 29.97 845 24.95 14.4 58 49 3.8 38.9 0
12:42 1015 29.97 844 24.92 14.5 58 49 3.9 39 0
12:43 1015 29.97 845 24.95 14.5 58.1 48 3.8 38.8 0
12:44 1015 29.97 845 24.95 14.6 58.2 47 3.5 38.2 0
12:45 1015 29.97 845 24.95 14.6 58.2 48 3.8 38.9 0
12:46 1015 29.97 845 24.95 14.6 58.2 47 3.3 38 0
12:47 1015 29.97 845 24.95 14.6 58.2 49 4 39.2 0
12:48 1015 29.97 845 24.95 14.6 58.2 51 4.7 40.5 0
12:49 1015 29.97 845 24.95 14.6 58.2 46 3 37.5 0
12:50 1015 29.97 845 24.95 14.5 58.2 47 3.5 38.4 0
12:51 1015 29.97 845 24.95 14.5 58.1 47 3.5 38.3 0
12:52 1015 29.97 845 24.95 14.4 58 49 3.9 39.1 0
12:53 1015 29.97 845 24.95 14.4 58 47 3.2 37.8 0
12:54 1015 29.97 845 24.95 14.4 58 49 4 39.1 0
12:55 1015 29.97 845 24.95 14.5 58.1 51 4.5 40.2 0
12:56 1015 29.97 845 24.95 14.5 58.1 49 4 39.3 0
12:57 1015 29.97 845 24.95 14.5 58.1 52 4.8 40.6 0
12:58 1015 29.97 845 24.95 14.5 58.2 50 4.3 39.8 0
12:59 1015 29.97 845 24.95 14.5 58 48 3.7 38.6 0
13:00 1015 29.97 845 24.95 14.4 57.9 51 4.4 39.9 0
13:01 1015 29.97 845 24.95 14.3 57.8 51 4.4 39.9 0
13:02 1015 29.97 845 24.95 14.4 57.9 50 4.2 39.5 0
13:03 1015 29.97 845 24.95 14.4 57.9 48 3.6 38.5 0
13:04 1015 29.97 845 24.95 14.4 57.9 48 3.7 38.7 0
13:05 1015 29.97 845 24.95 14.5 58 54 5.5 41.8 0
13:06 1015 29.97 844 24.92 14.5 58.1 53 5.1 41.2 0
13:07 1015 29.97 844 24.92 14.7 58.4 50 4.4 40 0
13:08 1015 29.97 844 24.92 14.8 58.7 49 4.2 39.6 0
13:09 1015 29.97 844 24.92 14.8 58.7 51 4.9 40.8 0
13:10 1015 29.97 844 24.92 14.9 58.8 49 4.4 40 0
13:11 1015 29.97 844 24.92 14.9 58.8 48 4.1 39.3 0
13:12 1015 29.97 844 24.92 14.9 58.7 50 4.7 40.5 0
13:13 1015 29.97 844 24.92 14.8 58.7 49 4.2 39.5 0
13:14 1015 29.97 844 24.92 14.9 58.7 50 4.7 40.4 0
13:15 1015 29.97 844 24.92 15 59 52 5.4 41.6 0
13:16 1015 29.97 844 24.92 15.2 59.3 53 5.8 42.5 0
13:17 1015 29.97 844 24.92 15.4 59.7 47 4.2 39.6 0
13:18 1015 29.97 844 24.92 15.5 59.9 52 5.9 42.6 0
13:19 1015 29.97 844 24.92 15.5 60 49 4.8 40.7 0
13:20 1015 29.97 844 24.92 15.5 60 50 5.3 41.6 0
13:21 1015 29.97 844 24.92 15.6 60.1 53 6.1 43 0
13:22 1015 29.97 844 24.92 15.8 60.4 50 5.5 41.9 0
13:23 1015 29.97 844 24.92 15.9 60.7 44 3.7 38.7 0
13:24 1015 29.97 844 24.92 15.9 60.7 47 4.8 40.6 0
13:25 1015 29.97 844 24.92 15.7 60.2 49 5.2 41.3 0
13:26 1015 29.97 844 24.92 15.4 59.6 48 4.5 40.2 0
13:27 1015 29.97 844 24.92 15.1 59.3 52 5.3 41.6 0
13:28 1015 29.97 844 24.92 15 59 50 4.7 40.4 0
13:29 1015 29.97 844 24.92 14.9 58.8 48 4.1 39.4 0
13:30 1015 29.97 844 24.92 14.8 58.7 49 4.4 39.9 0
13:31 1015 29.97 844 24.92 14.9 58.7 49 4.5 40 0
13:32 1015 29.97 844 24.92 15 59 52 5.3 41.6 0
13:33 1015 29.97 844 24.92 15.1 59.3 47 3.9 39 0
13:34 1015 29.97 844 24.92 15.2 59.4 50 4.8 40.7 0
13:35 1015 29.97 844 24.92 15.3 59.5 47 4.3 39.7 0
13:36 1015 29.97 844 24.92 15.4 59.6 46 3.9 39.1 0
13:37 1015 29.97 844 24.92 15.3 59.6 48 4.4 40 0
13:38 1015 29.97 844 24.92 15.3 59.6 51 5.2 41.4 0
13:39 1015 29.97 844 24.92 15.4 59.8 50 5.2 41.3 0
13:40 1015 29.97 844 24.92 15.6 60 46 3.9 39.1 0
13:41 1015 29.97 844 24.92 15.6 60 47 4.4 40 0
13:42 1015 29.97 844 24.92 15.5 59.9 46 4.1 39.4 0
13:43 1015 29.97 844 24.92 15.4 59.7 44 3.4 38.2 0
13:44 1015 29.97 844 24.92 15.3 59.5 47 4.2 39.6 0
13:45 1015 29.97 844 24.92 15.2 59.4 48 4.2 39.6 0
13:46 1015 29.97 844 24.92 15.2 59.3 45 3.4 38.1 0
13:47 1015 29.97 844 24.92 15.2 59.3 48 4.5 40 0
13:48 1015 29.97 844 24.92 15.1 59.3 47 4.1 39.3 0
13:49 1015 29.97 844 24.92 15.1 59.3 49 4.7 40.5 0
13:50 1015 29.97 844 24.92 15.1 59.2 49 4.7 40.4 0
13:51 1015 29.97 844 24.92 15.1 59.1 45 3.4 38.1 0
13:52 1015 29.97 844 24.92 15.1 59.2 46 3.8 38.8 0
13:53 1015 29.97 844 24.92 15.1 59.1 45 3.2 37.7 0
13:54 1015 29.97 844 24.92 15 59.1 44 3 37.3 0
13:55 1015 29.97 844 24.92 15.1 59.1 50 4.7 40.5 0
13:56 1015 29.97 844 24.92 15.1 59.2 50 4.8 40.7 0
13:57 1015 29.97 844 24.92 15.1 59.2 46 3.7 38.6 0
13:58 1015 29.97 844 24.92 15 59.1 48 4.2 39.6 0
13:59 1015 29.97 844 24.92 15 59 50 4.8 40.7 0
14:00 1015 29.97 844 24.92 15 58.9 46 3.5 38.3 0
14:01 1015 29.97 844 24.92 14.9 58.8 47 3.6 38.6 0
14:02 1015 29.97 844 24.92 14.9 58.9 49 4.4 39.9 0
14:03 1015 29.97 844 24.92 14.9 58.9 49 4.3 39.7 0
14:04 1015 29.97 844 24.92 14.9 58.8 46 3.6 38.5 0
14:05 1015 29.97 844 24.92 14.9 58.7 50 4.7 40.5 0
14:06 1015 29.97 844 24.92 14.8 58.6 46 3.4 38.1 0
14:07 1015 29.97 844 24.92 14.7 58.4 50 4.4 39.9 0
14:08 1015 29.97 844 24.92 14.6 58.3 52 4.8 40.7 0
14:09 1015 29.97 844 24.92 14.5 58.1 52 4.9 40.9 0
14:10 1015 29.97 844 24.92 14.5 58 51 4.5 40.1 0
14:11 1015 29.97 844 24.92 14.4 57.9 50 4.3 39.7 0
14:12 1015 29.97 844 24.92 14.4 58 50 4.2 39.6 0
14:13 1015 29.97 844 24.92 14.5 58 53 4.9 40.9 0
14:14 1015 29.97 844 24.92 14.5 58 48 3.6 38.5 0
14:15 1015 29.97 844 24.92 14.5 58.2 49 4.1 39.3 0
14:16 1015 29.97 844 24.92 14.6 58.2 55 5.7 42.2 0
14:17 1015 29.97 844 24.92 14.6 58.3 53 5.1 41.2 0
14:18 1015 29.97 844 24.92 14.7 58.4 51 4.6 40.3 0
14:19 1015 29.97 844 24.92 14.7 58.4 53 5.4 41.6 0
14:20 1015 29.97 844 24.92 14.7 58.4 54 5.7 42.2 0
14:21 1015 29.97 844 24.92 14.7 58.4 53 5.4 41.6 0
14:22 1015 29.97 844 24.92 14.7 58.4 49 4.2 39.6 0
14:23 1015 29.97 844 24.92 14.6 58.3 51 4.8 40.6 0
14:24 1015 29.97 844 24.92 14.6 58.3 51 4.7 40.4 0
14:25 1015 29.97 844 24.92 14.6 58.3 51 4.7 40.4 0
14:26 1015 29.97 844 24.92 14.6 58.3 48 3.9 39 0
14:27 1015 29.97 844 24.92 14.6 58.3 51 4.6 40.2 0
14:28 1015 29.97 844 24.92 14.7 58.4 50 4.5 40.1 0
14:29 1015 29.97 844 24.92 14.7 58.4 51 4.8 40.6 0
14:30 1015 29.97 844 24.92 14.7 58.4 48 3.9 39.1 0
14:31 1015 29.97 844 24.92 14.6 58.3 49 4.2 39.5 0
14:32 1015 29.97 844 24.92 14.6 58.3 49 4.2 39.5 0
14:33 1015 29.97 844 24.92 14.7 58.4 51 4.6 40.4 0
14:34 1015 29.97 844 24.92 14.7 58.4 50 4.5 40.1 0
14:35 1015 29.97 844 24.92 14.7 58.4 49 4.1 39.5 0
14:36 1015 29.97 844 24.92 14.7 58.4 49 4 39.3 0
14:37 1015 29.97 844 24.92 14.6 58.4 48 3.8 38.8 0
14:38 1015 29.97 844 24.92 14.6 58.3 50 4.4 39.9 0
14:39 1015 29.97 844 24.92 14.6 58.3 50 4.4 39.9 0
14:40 1015 29.97 844 24.92 14.5 58.2 52 4.8 40.7 0
14:41 1015 29.97 844 24.92 14.5 58.2 53 5.2 41.4 0
14:42 1015 29.97 844 24.92 14.5 58.1 52 4.9 40.8 0
14:43 1015 29.97 844 24.92 14.5 58.1 52 4.9 40.8 0
14:44 1015 29.97 844 24.92 14.5 58.1 48 3.8 38.9 0
14:45 1015 29.97 844 24.92 14.6 58.3 47 3.4 38 0
14:46 1015 29.97 844 24.92 14.6 58.3 46 3.4 38.1 0
14:47 1015 29.97 844 24.92 14.6 58.3 47 3.5 38.4 0
14:48 1015 29.97 844 24.92 14.7 58.4 47 3.6 38.5 0
14:49 1015 29.97 844 24.92 14.7 58.4 48 3.9 39.1 0
14:50 1015 29.97 844 24.92 14.7 58.4 49 4.1 39.4 0
14:51 1015 29.97 844 24.92 14.7 58.4 50 4.5 40.1 0
14:52 1015 29.97 844 24.92 14.6 58.3 47 3.5 38.4 0
14:53 1015 29.97 844 24.92 14.6 58.3 47 3.5 38.2 0
14:54 1015 29.97 844 24.92 14.6 58.3 44 2.6 36.6 0
14:55 1015 29.97 844 24.92 14.6 58.3 49 4.2 39.6 0
14:56 1015 29.97 844 24.92 14.5 58.2 49 3.9 39.1 0
14:57 1015 29.97 844 24.92 14.4 58 52 4.7 40.5 0
14:58 1015 29.97 844 24.92 14.3 57.7 51 4.3 39.7 0
14:59 1015 29.97 844 24.92 14.2 57.5 53 4.9 40.8 0
15:00 1015 29.97 844 24.92 14.1 57.5 50 4 39.2 0
15:01 1015 29.97 844 24.92 14.1 57.3 51 4.2 39.6 0
15:02 1015 29.97 844 24.92 14 57.2 54 4.9 40.7 0
15:03 1015 29.97 844 24.92 14 57.1 52 4.4 39.8 0
15:04 1015 29.97 845 24.95 13.9 57 51 3.9 39.1 0
15:05 1015 29.97 845 24.95 13.9 56.9 50 3.8 38.8 0
15:06 1015 29.97 845 24.95 13.9 56.9 53 4.6 40.3 0
15:07 1015 29.97 845 24.95 13.8 56.8 52 4.1 39.4 0
15:08 1015 29.97 845 24.95 13.8 56.8 54 4.7 40.4 0
15:09 1015 29.97 845 24.95 13.7 56.7 53 4.3 39.7 0
15:10 1015 29.97 845 24.95 13.7 56.7 55 4.8 40.7 0
15:11 1015 29.97 845 24.95 13.6 56.5 56 5.1 41.1 0
15:12 1015 29.97 845 24.95 13.6 56.4 55 4.8 40.7 0
15:13 1015 29.97 845 24.95 13.6 56.4 55 4.7 40.5 0
15:14 1015 29.97 845 24.95 13.5 56.3 56 5.1 41.2 0
15:15 1015 29.97 845 24.95 13.5 56.3 57 5.2 41.3 0
15:16 1015 29.97 845 24.95 13.5 56.4 53 4.3 39.8 0
15:17 1015 29.97 845 24.95 13.6 56.4 53 4.3 39.8 0
15:18 1015 29.97 845 24.95 13.6 56.5 53 4.3 39.8 0
15:19 1015 29.97 845 24.95 13.7 56.7 52 4.2 39.6 0
15:20 1015 29.97 845 24.95 13.8 56.8 54 4.8 40.6 0
15:21 1015 29.97 845 24.95 13.8 56.8 54 4.8 40.6 0
15:22 1015 29.97 845 24.95 13.8 56.9 54 4.8 40.7 0
15:23 1015 29.97 845 24.95 13.9 56.9 56 5.2 41.4 0
15:24 1015 29.97 845 24.95 13.9 57.1 54 4.9 40.8 0
15:25 1015 29.97 845 24.95 14 57.2 55 5.1 41.2 0
15:26 1015 29.97 845 24.95 14 57.3 54 5 41 0
15:27 1015 29.97 845 24.95 14.1 57.3 53 4.7 40.4 0
15:28 1015 29.97 845 24.95 14.1 57.4 51 4.3 39.7 0
15:29 1015 29.97 845 24.95 14.2 57.5 53 4.9 40.8 0
15:30 1015 29.97 845 24.95 14.2 57.6 52 4.6 40.2 0
15:31 1015 29.97 845 24.95 14.2 57.6 54 5.2 41.3 0
15:32 1015 29.97 845 24.95 14.3 57.7 55 5.5 41.9 0
15:33 1015 29.97 845 24.95 14.3 57.8 51 4.3 39.7 0
15:34 1015 29.97 845 24.95 14.3 57.8 51 4.3 39.8 0
15:35 1015 29.97 845 24.95 14.4 57.9 52 4.7 40.4 0
15:36 1015 29.97 845 24.95 14.5 58 51 4.4 40 0
15:37 1015 29.97 845 24.95 14.5 58.1 53 5.1 41.2 0
15:38 1015 29.97 845 24.95 14.5 58.2 48 3.9 38.9 0
15:39 1015 29.97 845 24.95 14.6 58.3 51 4.8 40.6 0
15:40 1015 29.97 845 24.95 14.7 58.5 51 4.7 40.5 0
15:41 1015 29.97 845 24.95 14.8 58.6 49 4.2 39.5 0
15:42 1016 30 845 24.95 15 59 50 4.8 40.6 0
15:43 1016 30 845 24.95 15.2 59.3 53 5.9 42.6 0
15:44 1016 30 845 24.95 15.4 59.7 50 5.1 41.2 0
15:45 1016 30 845 24.95 15.7 60.2 49 5.1 41.2 0
15:46 1016 30 845 24.95 15.9 60.6 48 4.9 40.9 0
15:47 1016 30 845 24.95 16.1 60.9 45 4.2 39.5 0
15:48 1016 30 845 24.95 16.2 61.2 48 5.2 41.3 0
15:49 1016 30 845 24.95 16.4 61.5 48 5.3 41.6 0
15:50 1016 30 845 24.95 16.4 61.6 43 4 39.3 0
15:51 1016 30 845 24.95 16.5 61.8 45 4.8 40.6 0
15:52 1016 30 845 24.95 16.6 61.9 47 5.4 41.7 0
15:53 1016 30 845 24.95 16.7 62 48 5.7 42.3 0
15:54 1016 30 845 24.95 16.8 62.2 44 4.5 40.1 0
15:55 1016 30 845 24.95 16.8 62.3 43 4.2 39.6 0
15:56 1016 30 845 24.95 16.9 62.4 43 4.3 39.8 0
15:57 1016 30 845 24.95 16.9 62.4 47 5.8 42.4 0
15:58 1015 29.97 845 24.95 16.9 62.4 45 4.9 40.8 0
15:59 1016 30 845 24.95 16.8 62.3 44 4.6 40.2 0
16:00 1016 30 845 24.95 16.8 62.2 42 3.9 39 0
16:01 1016 30 845 24.95 16.7 62.1 45 4.8 40.7 0
16:02 1016 30 845 24.95 16.7 62 43 4.1 39.4 0
16:03 1016 30 845 24.95 16.8 62.3 45 4.9 40.8 0
16:04 1016 30 845 24.95 17 62.5 42 3.9 39.1 0
16:05 1016 30 845 24.95 16.9 62.5 42 4.1 39.3 0
16:06 1016 30 845 24.95 16.9 62.3 40 3.2 37.8 0
16:07 1016 30 845 24.95 16.8 62.3 39 2.8 37 0
16:08 1016 30 845 24.95 16.8 62.3 42 3.8 38.9 0
16:09 1016 30 845 24.95 16.8 62.2 43 4.2 39.5 0
16:10 1016 30 845 24.95 16.8 62.3 45 4.9 40.9 0
16:11 1016 30 845 24.95 16.9 62.4 39 2.9 37.2 0
16:12 1016 30 845 24.95 16.8 62.3 42 3.9 39 0
16:13 1016 30 845 24.95 16.8 62.3 41 3.7 38.6 0
16:14 1016 30 845 24.95 16.9 62.4 39 3 37.4 0
16:15 1016 30 845 24.95 16.9 62.5 41 3.5 38.4 0
16:16 1016 30 845 24.95 16.9 62.5 39 3.1 37.6 0
16:17 1016 30 845 24.95 16.9 62.5 39 3 37.3 0
16:18 1016 30 845 24.95 16.9 62.5 41 3.9 38.9 0
16:19 1016 30 845 24.95 16.9 62.5 40 3.2 37.7 0
16:20 1016 30 845 24.95 16.9 62.4 46 5.2 41.3 0
16:21 1016 30 845 24.95 17 62.6 41 3.7 38.7 0
16:22 1015 29.97 845 24.95 16.8 62.2 39 2.9 37.3 0
16:23 1015 29.97 845 24.95 16.4 61.5 42 3.6 38.5 0
16:24 1015 29.97 845 24.95 16 60.8 44 3.8 38.9 0
16:25 1015 29.97 845 24.95 15.7 60.2 44 3.4 38.1 0
16:26 1015 29.97 845 24.95 15.4 59.7 44 3.3 38 0
16:27 1015 29.97 845 24.95 15.2 59.4 46 3.9 39.1 0
16:28 1015 29.97 845 24.95 15.1 59.2 48 4.3 39.8 0
16:29 1015 29.97 845 24.95 15 58.9 46 3.6 38.5 0
16:30 1015 29.97 845 24.95 14.9 58.8 46 3.5 38.4 0
16:31 1015 29.97 845 24.95 14.9 58.8 47 3.6 38.6 0
16:32 1015 29.97 845 24.95 14.9 58.9 46 3.6 38.4 0
16:33 1015 29.97 845 24.95 14.9 58.9 48 4.1 39.4 0
16:34 1015 29.97 845 24.95 15 58.9 45 3.2 37.8 0
16:35 1015 29.97 845 24.95 15.1 59.2 45 3.4 38.1 0
16:36 1016 30 845 24.95 15.3 59.6 42 2.7 36.9 0
16:37 1016 30 845 24.95 15.5 59.8 44 3.3 38 0
16:38 1015 29.97 845 24.95 15.5 60 42 2.6 36.8 0
16:39 1015 29.97 845 24.95 15.6 60.1 41 2.6 36.6 0
16:40 1015 29.97 845 24.95 15.7 60.3 43 3.2 37.7 0
16:41 1015 29.97 845 24.95 15.8 60.5 45 4.1 39.4 0
16:42 1016 30 845 24.95 16 60.7 44 3.7 38.7 0
16:43 1016 30 845 24.95 16.1 60.9 44 3.9 39 0
16:44 1016 30 845 24.95 16 60.9 45 4.1 39.4 0
16:45 1016 30 845 24.95 16.1 60.9 45 4.3 39.8 0
16:46 1016 30 845 24.95 16.1 61.1 42 3.5 38.2 0
16:47 1016 30 845 24.95 16.2 61.2 46 4.6 40.2 0
16:48 1016 30 845 24.95 16.2 61.2 45 4.5 40.1 0
16:49 1015 29.97 845 24.95 16.3 61.4 42 3.4 38.1 0
16:50 1015 29.97 845 24.95 16.3 61.4 44 4.1 39.4 0
16:51 1015 29.97 845 24.95 16.3 61.4 40 2.9 37.2 0
16:52 1015 29.97 845 24.95 16.3 61.3 43 3.7 38.7 0
16:53 1015 29.97 845 24.95 16.3 61.3 42 3.4 38.1 0
16:54 1016 30 845 24.95 16.3 61.3 39 2.4 36.3 0
16:55 1015 29.97 845 24.95 16.2 61.1 40 2.7 36.8 0
16:56 1015 29.97 845 24.95 16.1 60.9 43 3.6 38.5 0
16:57 1015 29.97 845 24.95 16 60.9 42 3.3 37.9 0
16:58 1015 29.97 845 24.95 16.1 60.9 41 2.8 37.1 0
16:59 1015 29.97 845 24.95 16.1 60.9 42 3.1 37.6 0
17:00 1015 29.97 845 24.95 16.1 61 41 2.9 37.2 0
17:01 1015 29.97 845 24.95 16.1 61 45 4.3 39.8 0
17:02 1015 29.97 845 24.95 16.1 61 40 2.8 37 0
17:03 1015 29.97 845 24.95 16.1 60.9 42 3.4 38.1 0
17:04 1015 29.97 845 24.95 16 60.9 44 3.9 39 0
17:05 1015 29.97 845 24.95 16.1 60.9 41 2.9 37.3 0
17:06 1015 29.97 845 24.95 16.1 61 42 3.4 38.2 0
17:07 1015 29.97 845 24.95 16.2 61.1 42 3.5 38.3 0
17:08 1015 29.97 845 24.95 16.2 61.1 40 2.7 36.9 0
17:09 1015 29.97 845 24.95 16.1 61 42 3.1 37.7 0
17:10 1015 29.97 845 24.95 16.1 60.9 40 2.7 36.9 0
17:11 1015 29.97 845 24.95 15.9 60.7 40 2.3 36.2 0
17:12 1015 29.97 845 24.95 15.9 60.6 41 2.9 37.2 0
17:13 1015 29.97 845 24.95 15.8 60.5 42 3.1 37.7 0
17:14 1015 29.97 845 24.95 15.8 60.5 43 3.5 38.2 0
17:15 1015 29.97 845 24.95 15.9 60.6 42 3.1 37.6 0
17:16 1015 29.97 845 24.95 16 60.8 43 3.4 38.1 0
17:17 1015 29.97 845 24.95 16 60.8 41 2.9 37.3 0
17:18 1015 29.97 845 24.95 16 60.8 40 2.6 36.6 0
17:19 1015 29.97 845 24.95 16.1 60.9 44 4 39.2 0
17:20 1015 29.97 845 24.95 16.1 60.9 41 3 37.5 0
17:21 1015 29.97 845 24.95 16 60.8 41 2.9 37.2 0
17:22 1015 29.97 845 24.95 15.8 60.4 40 2.4 36.3 0
17:23 1015 29.97 845 24.95 15.6 60.1 43 3.2 37.7 0
17:24 1015 29.97 845 24.95 15.4 59.8 41 2.4 36.3 0
17:25 1015 29.97 845 24.95 15.4 59.8 42 2.7 36.8 0
17:26 1015 29.97 845 24.95 15.3 59.6 44 3.4 38.1 0
17:27 1015 29.97 845 24.95 15.3 59.6 44 3.1 37.6 0
17:28 1015 29.97 845 24.95 15.3 59.5 44 3.3 38 0
17:29 1015 29.97 845 24.95 15.2 59.3 44 3.2 37.7 0
17:30 1015 29.97 845 24.95 15.1 59.2 44 2.9 37.3 0
17:31 1015 29.97 845 24.95 15 59 46 3.5 38.2 0
17:32 1015 29.97 845 24.95 14.9 58.8 46 3.5 38.4 0
17:33 1015 29.97 845 24.95 14.8 58.7 44 2.9 37.3 0
17:34 1015 29.97 845 24.95 14.8 58.7 45 3.1 37.5 0
17:35 1015 29.97 845 24.95 14.7 58.5 46 3.2 37.7 0
17:36 1015 29.97 845 24.95 14.6 58.4 48 3.7 38.6 0
17:37 1016 30 845 24.95 14.6 58.3 44 2.7 36.9 0
17:38 1016 30 845 24.95 14.7 58.4 44 2.7 36.9 0
17:39 1016 30 845 24.95 14.8 58.6 45 3.1 37.6 0
17:40 1016 30 845 24.95 14.6 58.4 45 2.9 37.3 0
17:41 1016 30 845 24.95 14.6 58.3 45 2.8 37.1 0
17:42 1016 30 845 24.95 14.6 58.2 45 2.9 37.1 0
17:43 1016 30 845 24.95 14.6 58.2 44 2.6 36.7 0
17:44 1016 30 845 24.95 14.6 58.3 42 1.9 35.4 0
17:45 1016 30 845 24.95 14.7 58.4 45 3.1 37.5 0
17:46 1016 30 845 24.95 14.7 58.4 44 2.8 37 0
17:47 1015 29.97 845 24.95 14.7 58.4 46 3.4 38.1 0
17:48 1016 30 845 24.95 14.6 58.3 45 2.9 37.1 0
17:49 1016 30 845 24.95 14.6 58.3 45 3.1 37.5 0
17:50 1016 30 845 24.95 14.6 58.2 44 2.5 36.5 0
17:51 1016 30 845 24.95 14.6 58.2 46 3 37.5 0
17:52 1016 30 845 24.95 14.5 58.2 45 2.9 37.3 0
17:53 1016 30 845 24.95 14.4 58 45 2.8 37 0
17:54 1016 30 845 24.95 14.4 58 44 2.4 36.3 0
17:55 1015 29.97 845 24.95 14.5 58.1 45 2.9 37.3 0
17:56 1015 29.97 845 24.95 14.4 58 45 2.7 36.9 0
17:57 1015 29.97 845 24.95 14.4 57.8 45 2.7 36.9 0
17:58 1016 30 845 24.95 14.3 57.8 46 2.8 37.1 0
17:59 1016 30 845 24.95 14.3 57.7 47 3.2 37.8 0
18:00 1016 30 845 24.95 14.2 57.5 51 4.4 39.9 0
18:01 1016 30 845 24.95 14 57.2 55 5.1 41.1 0
18:02 1016 30 845 24.95 13.8 56.8 55 5 41 0
18:03 1016 30 845 24.95 13.6 56.4 57 5.2 41.3 0
18:04 1015 29.97 845 24.95 13.5 56.2 57 5.3 41.5 0
18:05 1015 29.97 845 24.95 13.4 56 57 5.1 41.2 0
18:06 1015 29.97 845 24.95 13.2 55.8 59 5.4 41.8 0
18:07 1015 29.97 845 24.95 13.2 55.7 58 5.2 41.3 0
18:08 1015 29.97 845 24.95 13.1 55.6 59 5.4 41.8 0
18:09 1015 29.97 845 24.95 13.1 55.5 58 5.1 41.2 0
18:10 1015 29.97 845 24.95 13.1 55.5 58 5.1 41.1 0
18:11 1015 29.97 845 24.95 13 55.4 57 4.6 40.4 0
18:12 1015 29.97 845 24.95 13 55.5 58 5 41 0
18:13 1015 29.97 845 24.95 13 55.4 58 5.1 41.2 0
18:14 1015 29.97 845 24.95 13 55.4 59 5.2 41.3 0
18:15 1015 29.97 845 24.95 12.9 55.3 57 4.6 40.2 0
18:16 1015 29.97 845 24.95 13 55.4 56 4.5 40.1 0
18:17 1015 29.97 845 24.95 13.1 55.5 57 4.8 40.7 0
18:18 1015 29.97 845 24.95 13 55.4 57 4.6 40.4 0
18:19 1015 29.97 845 24.95 13 55.4 57 4.8 40.6 0
18:20 1015 29.97 845 24.95 13 55.3 57 4.8 40.6 0
18:21 1015 29.97 845 24.95 12.9 55.3 58 5 41 0
18:22 1015 29.97 845 24.95 12.9 55.2 58 4.9 40.8 0
18:23 1015 29.97 845 24.95 12.8 55 59 5 41.1 0
18:24 1015 29.97 845 24.95 12.7 54.9 59 5 41 0
18:25 1015 29.97 845 24.95 12.7 54.8 59 4.9 40.8 0
18:26 1015 29.97 845 24.95 12.6 54.7 59 4.9 40.9 0
18:27 1015 29.97 845 24.95 12.6 54.6 59 4.9 40.8 0
18:28 1015 29.97 845 24.95 12.6 54.6 58 4.6 40.2 0
18:29 1015 29.97 845 24.95 12.5 54.6 59 4.9 40.8 0
18:30 1015 29.97 845 24.95 12.5 54.5 58 4.5 40.1 0
18:31 1015 29.97 845 24.95 12.5 54.4 59 4.6 40.3 0
18:32 1015 29.97 845 24.95 12.5 54.5 57 4.4 39.9 0
18:33 1015 29.97 845 24.95 12.5 54.5 58 4.4 40 0
18:34 1015 29.97 845 24.95 12.6 54.6 57 4.4 40 0
18:35 1015 29.97 845 24.95 12.5 54.6 58 4.5 40.1 0
18:36 1015 29.97 845 24.95 12.5 54.5 59 4.7 40.4 0
18:37 1015 29.97 845 24.95 12.5 54.4 59 4.7 40.4 0
18:38 1015 29.97 845 24.95 12.4 54.4 59 4.6 40.4 0
18:39 1015 29.97 845 24.95 12.4 54.2 59 4.6 40.4 0
18:40 1015 29.97 845 24.95 12.3 54.2 60 4.9 40.9 0
18:41 1015 29.97 845 24.95 12.2 53.9 60 4.7 40.5 0
18:42 1015 29.97 845 24.95 12.1 53.8 60 4.7 40.5 0
18:43 1015 29.97 845 24.95 12 53.7 60 4.6 40.2 0
18:44 1015 29.97 845 24.95 12.1 53.7 61 4.9 40.8 0
18:45 1015 29.97 845 24.95 12 53.6 62 4.9 40.9 0
18:46 1015 29.97 845 24.95 12 53.5 61 4.7 40.4 0
18:47 1015 29.97 845 24.95 11.9 53.4 62 4.9 40.8 0
18:48 1015 29.97 845 24.95 11.8 53.3 61 4.7 40.5 0
18:49 1015 29.97 845 24.95 11.9 53.3 61 4.7 40.5 0
18:50 1015 29.97 845 24.95 11.8 53.3 61 4.6 40.4 0
18:51 1015 29.97 845 24.95 11.9 53.3 62 4.9 40.8 0
18:52 1015 29.97 845 24.95 11.8 53.2 62 4.8 40.7 0
18:53 1015 29.97 845 24.95 11.8 53.2 62 4.7 40.4 0
18:54 1015 29.97 845 24.95 11.7 53.1 63 5 40.9 0
18:55 1015 29.97 845 24.95 11.6 52.9 64 5 41 0
18:56 1016 30 845 24.95 11.5 52.8 64 4.9 40.9 0
18:57 1016 30 845 24.95 11.5 52.6 63 4.7 40.4 0
18:58 1016 30 845 24.95 11.4 52.6 63 4.7 40.4 0
18:59 1016 30 845 24.95 11.5 52.6 63 4.6 40.4 0
19:00 1016 30 845 24.95 11.5 52.6 61 4.2 39.5 0
19:01 1016 30 845 24.95 11.6 52.8 61 4.4 39.9 0
19:02 1016 30 845 24.95 11.6 52.9 61 4.3 39.8 0
19:03 1016 30 845 24.95 11.7 53 62 4.7 40.5 0
19:04 1016 30 845 24.95 11.6 52.8 64 5.1 41.1 0
19:05 1016 30 845 24.95 11.1 52.1 68 5.4 41.7 0
19:06 1016 30 845 24.95 10.8 51.5 68 5.3 41.5 0
19:07 1016 30 845 24.95 10.7 51.2 61 3.6 38.5 0
19:08 1016 30 845 24.95 11.1 51.9 57 3 37.4 0
19:09 1016 30 845 24.95 11.6 52.9 55 3.1 37.5 0
19:10 1016 30 845 24.95 12.2 53.9 54 3.1 37.6 0
19:11 1016 30 845 24.95 12.5 54.4 53 3.3 38 0
19:12 1016 30 845 24.95 12.6 54.7 53 3.5 38.2 0
19:13 1016 30 845 24.95 12.6 54.7 56 4 39.3 0
19:14 1016 30 845 24.95 12.6 54.6 57 4.4 39.9 0
19:15 1016 30 845 24.95 12.4 54.3 57 4.2 39.5 0
19:16 1016 30 845 24.95 12.4 54.2 58 4.4 39.9 0
19:17 1016 30 845 24.95 12.3 54.1 59 4.7 40.4 0
19:18 1016 30 845 24.95 12 53.7 59 4.4 40 0
19:19 1016 30 845 24.95 11.9 53.4 60 4.4 39.9 0
19:20 1016 30 845 24.95 11.8 53.3 61 4.6 40.2 0
19:21 1016 30 845 24.95 11.7 53.1 62 4.8 40.6 0
19:22 1016 30 845 24.95 11.6 52.9 62 4.6 40.3 0
19:23 1016 30 845 24.95 11.5 52.7 62 4.4 39.9 0
19:24 1016 30 845 24.95 11.4 52.6 60 4 39.1 0
19:25 1016 30 845 24.95 11.5 52.7 60 4 39.2 0
19:26 1016 30 845 24.95 11.6 52.9 61 4.4 39.9 0
19:27 1016 30 845 24.95 11.6 52.9 61 4.4 40 0
19:28 1016 30 845 24.95 11.6 52.8 62 4.6 40.3 0
19:29 1016 30 845 24.95 11.5 52.6 62 4.6 40.2 0
19:30 1016 30 845 24.95 11.4 52.5 62 4.5 40 0
19:31 1016 30 845 24.95 11.4 52.5 63 4.7 40.4 0
19:32 1016 30 845 24.95 11.4 52.5 64 4.9 40.8 0
19:33 1016 30 845 24.95 11.2 52.2 65 5 40.9 0
19:34 1016 30 845 24.95 11 51.9 66 5 41 0
19:35 1016 30 845 24.95 10.9 51.7 67 5.1 41.2 0
19:36 1016 30 845 24.95 10.8 51.4 68 5.1 41.3 0
19:37 1016 30 845 24.95 10.6 51.1 69 5.1 41.2 0
19:38 1016 30 845 24.95 10.5 50.9 67 4.8 40.6 0
19:39 1016 30 845 24.95 10.5 51 67 4.7 40.5 0
19:40 1016 30 845 24.95 10.6 51.1 67 4.7 40.5 0
19:41 1016 30 845 24.95 10.7 51.2 64 4.2 39.5 0
19:42 1016 30 845 24.95 10.8 51.5 64 4.3 39.8 0
19:43 1016 30 845 24.95 11 51.8 65 4.6 40.3 0
19:44 1016 30 845 24.95 11 51.9 64 4.6 40.2 0
19:45 1016 30 845 24.95 11 51.9 63 4.4 39.9 0
19:46 1016 30 845 24.95 11.1 51.9 64 4.5 40.2 0
19:47 1016 30 845 24.95 11 51.9 65 4.8 40.6 0
19:48 1016 30 845 24.95 10.9 51.7 66 4.9 40.8 0
19:49 1016 30 845 24.95 10.7 51.2 67 4.7 40.5 0
19:50 1016 30 845 24.95 10.6 51 66 4.5 40.1 0
19:51 1016 30 845 24.95 10.7 51.2 64 4.1 39.4 0
19:52 1016 30 845 24.95 10.9 51.5 63 4.1 39.4 0
19:53 1016 30 845 24.95 11 51.8 62 4.1 39.5 0
19:54 1016 30 845 24.95 11.1 51.9 63 4.3 39.8 0
19:55 1016 30 845 24.95 11 51.8 65 4.7 40.5 0
19:56 1016 30 845 24.95 10.9 51.5 66 4.9 40.8 0
19:57 1016 30 845 24.95 10.7 51.3 67 4.8 40.6 0
19:58 1016 30 845 24.95 10.7 51.2 67 4.8 40.6 0
19:59 1016 30 845 24.95 10.7 51.2 68 4.9 40.9 0
20:00 1016 30 845 24.95 10.5 50.9 68 5 41 0
20:01 1016 30 845 24.95 10.4 50.6 69 5 41 0
20:02 1016 30 845 24.95 10.2 50.4 70 5 41 0
20:03 1016 30 845 24.95 10.2 50.3 70 5 41.1 0
20:04 1016 30 845 24.95 10.1 50.1 71 5 41 0
20:05 1016 30 845 24.95 10.1 50.1 70 4.9 40.9 0
20:06 1016 30 845 24.95 10.1 50.1 70 4.9 40.8 0
20:07 1016 30 845 24.95 10.1 50.1 71 5 41 0
20:08 1016 30 845 24.95 10 50.1 71 5 40.9 0
20:09 1016 30 845 24.95 10.1 50.2 70 4.9 40.9 0
20:10 1016 30 845 24.95 10.1 50.2 70 5 41 0
20:11 1016 30 845 24.95 10.1 50.1 70 5 40.9 0
20:12 1016 30 845 24.95 10.1 50.2 70 4.8 40.7 0
20:13 1016 30 845 24.95 10.1 50.2 70 4.9 40.8 0
20:14 1016 30 845 24.95 10.1 50.2 70 5 41 0
20:15 1016 30 845 24.95 10.1 50.2 71 5.1 41.2 0
20:16 1016 30 845 24.95 10 49.9 72 5.1 41.2 0
20:17 1016 30 845 24.95 9.9 49.8 72 5.2 41.3 0
20:18 1016 30 845 24.95 9.8 49.6 72 5.1 41.2 0
20:19 1016 30 845 24.95 9.8 49.6 72 5 41 0
20:20 1016 30 845 24.95 9.7 49.5 72 5 41.1 0
20:21 1016 30 845 24.95 9.7 49.5 72 4.9 40.8 0
20:22 1016 30 845 24.95 9.7 49.4 72 4.9 40.8 0
20:23 1016 30 845 24.95 9.6 49.3 71 4.7 40.4 0
20:24 1016 30 845 24.95 9.6 49.2 71 4.6 40.3 0
20:25 1016 30 845 24.95 9.5 49.1 70 4.4 39.9 0
20:26 1016 30 845 24.95 9.5 49.2 70 4.3 39.8 0
20:27 1016 30 845 24.95 9.5 49.2 70 4.3 39.8 0
20:28 1016 30 845 24.95 9.5 49.1 70 4.3 39.8 0
20:29 1016 30 845 24.95 9.4 49 70 4.3 39.7 0
20:30 1016 30 845 24.95 9.4 48.9 70 4.3 39.7 0
20:31 1016 30 845 24.95 9.3 48.8 70 4.2 39.6 0
20:32 1016 30 845 24.95 9.3 48.7 71 4.2 39.6 0
20:33 1016 30 845 24.95 9.2 48.6 71 4.2 39.6 0
20:34 1016 30 845 24.95 9.1 48.5 70 4.1 39.3 0
20:35 1016 30 845 24.95 9.1 48.4 70 3.9 39.1 0
20:36 1016 30 845 24.95 9.1 48.4 69 3.8 38.8 0
20:37 1016 30 845 24.95 9.1 48.4 70 4 39.2 0
20:38 1016 30 845 24.95 9 48.2 71 4 39.2 0
20:39 1016 30 845 24.95 8.8 47.9 72 4.2 39.5 0
20:40 1016 30 845 24.95 8.6 47.4 73 4.1 39.3 0
20:41 1016 30 845 24.95 8.4 47.2 74 4.1 39.3 0
20:42 1016 30 845 24.95 8.3 46.9 74 4 39.2 0
20:43 1016 30 845 24.95 8.2 46.7 75 3.9 39.1 0
20:44 1016 30 845 24.95 8.2 46.7 75 3.9 39.1 0
20:45 1016 30 845 24.95 8.1 46.5 75 3.9 39 0
20:46 1016 30 845 24.95 8 46.5 75 3.9 39 0
20:47 1016 30 845 24.95 8 46.4 75 3.9 39.1 0
20:48 1016 30 845 24.95 8 46.3 75 3.9 39 0
20:49 1016 30 845 24.95 7.9 46.3 76 3.9 39 0
20:50 1016 30 845 24.95 7.9 46.2 76 3.9 39.1 0
20:51 1016 30 845 24.95 7.8 46 77 4 39.2 0
20:52 1016 30 845 24.95 7.7 45.9 78 4.1 39.3 0
20:53 1016 30 845 24.95 7.7 45.9 78 4.1 39.4 0
20:54 1016 30 845 24.95 7.6 45.7 79 4.1 39.4 0
20:55 1016 30 845 24.95 7.6 45.6 79 4.2 39.5 0
20:56 1016 30 845 24.95 7.6 45.6 79 4.2 39.6 0
20:57 1016 30 845 24.95 7.6 45.6 79 4.2 39.6 0
20:58 1016 30 845 24.95 7.6 45.6 79 4.3 39.7 0
20:59 1016 30 845 24.95 7.7 45.8 79 4.3 39.7 0
21:00 1016 30 845 24.95 7.8 46 79 4.4 39.9 0
21:01 1016 30 845 24.95 7.7 45.8 81 4.6 40.2 0
21:02 1016 30 845 24.95 7.6 45.6 82 4.6 40.3 0
21:03 1016 30 845 24.95 7.4 45.4 82 4.5 40.1 0
21:04 1016 30 845 24.95 7.5 45.4 80 4.2 39.6 0
21:05 1016 30 845 24.95 7.6 45.6 79 4.2 39.6 0
21:06 1016 30 845 24.95 7.6 45.6 79 4.2 39.6 0
21:07 1016 30 845 24.95 7.6 45.7 78 4.1 39.4 0
21:08 1016 30 845 24.95 7.6 45.6 78 4 39.2 0
21:09 1016 30 845 24.95 7.7 45.8 77 3.9 39 0
21:10 1016 30 845 24.95 7.8 46.1 77 4 39.2 0
21:11 1016 30 845 24.95 7.9 46.2 77 4.1 39.3 0
21:12 1016 30 845 24.95 7.9 46.2 76 4 39.2 0
21:13 1016 30 845 24.95 8 46.4 75 3.9 39 0
21:14 1016 30 845 24.95 8.2 46.8 73 3.8 38.8 0
21:15 1016 30 845 24.95 8.5 47.3 72 3.8 38.8 0
21:16 1016 30 845 24.95 8.7 47.7 71 3.8 38.9 0
21:17 1016 30 845 24.95 8.9 48.1 71 3.9 39.1 0
21:18 1016 30 845 24.95 9 48.3 71 4.1 39.4 0
21:19 1016 30 845 24.95 9.1 48.4 71 4.1 39.4 0
21:20 1016 30 845 24.95 9.2 48.5 71 4.2 39.6 0
21:21 1016 30 845 24.95 9.3 48.7 68 3.8 38.8 0
21:22 1016 30 846 24.98 9.5 49.1 68 3.9 39.1 0
21:23 1016 30 846 24.98 9.7 49.4 69 4.4 39.8 0
21:24 1016 30 846 24.98 9.7 49.5 70 4.5 40.2 0
21:25 1016 30 846 24.98 9.7 49.4 70 4.6 40.2 0
21:26 1016 30 846 24.98 9.6 49.3 70 4.5 40 0
21:27 1016 30 846 24.98 9.6 49.3 70 4.5 40.1 0
21:28 1016 30 846 24.98 9.5 49.1 71 4.6 40.3 0
21:29 1016 30 846 24.98 9.4 49 71 4.4 39.9 0
21:30 1017 30.03 846 24.98 9.4 49 70 4.2 39.5 0
21:31 1017 30.03 846 24.98 9.5 49.1 68 3.8 38.9 0
21:32 1017 30.03 846 24.98 9.6 49.4 67 3.9 39.1 0
21:33 1017 30.03 846 24.98 10 49.9 61 2.9 37.2 0
21:34 1017 30.03 846 24.98 10.5 50.9 60 3.2 37.7 0
21:35 1017 30.03 846 24.98 10.9 51.6 56 2.6 36.6 0
21:36 1017 30.03 846 24.98 11.4 52.4 56 2.9 37.2 0
21:37 1017 30.03 846 24.98 11.6 52.9 56 3.2 37.8 0
21:38 1017 30.03 846 24.98 11.7 53 56 3.3 38 0
21:39 1017 30.03 846 24.98 11.7 53 56 3.3 38 0
21:40 1017 30.03 846 24.98 11.7 53 58 3.7 38.6 0
21:41 1017 30.03 846 24.98 11.6 52.9 57 3.3 37.9 0
21:42 1017 30.03 846 24.98 11.6 52.9 57 3.6 38.4 0
21:43 1017 30.03 846 24.98 11.6 52.9 58 3.7 38.6 0
21:44 1017 30.03 846 24.98 11.6 52.8 58 3.7 38.7 0
21:45 1017 30.03 846 24.98 11.5 52.7 59 3.8 38.8 0
21:46 1017 30.03 846 24.98 11.5 52.7 59 3.7 38.7 0
21:47 1017 30.03 846 24.98 11.5 52.6 59 3.9 39 0
21:48 1017 30.03 846 24.98 11.4 52.6 59 3.8 38.8 0
21:49 1017 30.03 846 24.98 11.5 52.6 59 3.8 38.8 0
21:50 1017 30.03 846 24.98 11.4 52.6 59 3.7 38.6 0
21:51 1017 30.03 846 24.98 11.4 52.5 60 4 39.2 0
21:52 1017 30.03 846 24.98 11.3 52.4 60 4 39.2 0
21:53 1017 30.03 846 24.98 11.2 52.2 60 3.9 39 0
21:54 1017 30.03 846 24.98 11.2 52.1 61 4.1 39.3 0
21:55 1017 30.03 846 24.98 11.1 52 61 4 39.2 0
21:56 1017 30.03 846 24.98 11.1 51.9 63 4.3 39.7 0
21:57 1017 30.03 846 24.98 11 51.8 63 4.2 39.6 0
21:58 1017 30.03 846 24.98 10.9 51.7 63 4.1 39.4 0
21:59 1017 30.03 846 24.98 10.9 51.6 63 4.1 39.3 0
22:00 1017 30.03 846 24.98 10.9 51.6 63 4.1 39.5 0
22:01 1017 30.03 846 24.98 10.8 51.5 65 4.5 40.1 0
22:02 1017 30.03 846 24.98 10.7 51.3 65 4.5 40.1 0
22:03 1017 30.03 846 24.98 10.6 51.1 67 4.7 40.5 0
22:04 1017 30.03 846 24.98 10.5 50.9 67 4.7 40.4 0
22:05 1017 30.03 846 24.98 10.4 50.8 69 5 41 0
22:06 1017 30.03 846 24.98 10.3 50.5 71 5.2 41.4 0
22:07 1017 30.03 846 24.98 10.1 50.3 72 5.3 41.5 0
22:08 1017 30.03 846 24.98 10 50 73 5.4 41.7 0
22:09 1017 30.03 846 24.98 9.9 49.7 74 5.5 42 0
22:10 1017 30.03 846 24.98 9.8 49.6 75 5.6 42.1 0
22:11 1017 30.03 846 24.98 9.7 49.4 74 5.2 41.4 0
22:12 1017 30.03 846 24.98 9.7 49.4 75 5.4 41.7 0
22:13 1017 30.03 846 24.98 9.6 49.3 75 5.4 41.6 0
22:14 1017 30.03 846 24.98 9.7 49.4 75 5.5 41.9 0
22:15 1017 30.03 846 24.98 9.6 49.4 75 5.5 41.9 0
22:16 1017 30.03 846 24.98 9.5 49.2 76 5.6 42 0
22:17 1017 30.03 846 24.98 9.5 49.1 73 5 41 0
22:18 1017 30.03 846 24.98 9.6 49.3 73 5.1 41.2 0
22:19 1017 30.03 846 24.98 9.6 49.2 72 4.9 40.7 0
22:20 1017 30.03 846 24.98 9.7 49.4 74 5.2 41.4 0
22:21 1017 30.03 846 24.98 9.6 49.2 75 5.5 41.8 0
22:22 1017 30.03 846 24.98 9.5 49.1 75 5.3 41.6 0
22:23 1017 30.03 846 24.98 9.5 49 74 5.1 41.1 0
22:24 1017 30.03 846 24.98 9.5 49.1 74 5.1 41.1 0
22:25 1017 30.03 846 24.98 9.6 49.2 69 4.2 39.6 0
22:26 1017 30.03 846 24.98 9.7 49.4 72 5 40.9 0
22:27 1017 30.03 846 24.98 9.7 49.4 71 4.6 40.3 0
22:28 1017 30.03 846 24.98 9.8 49.6 69 4.5 40 0
22:29 1017 30.03 846 24.98 9.8 49.6 70 4.5 40.1 0
22:30 1017 30.03 846 24.98 9.8 49.6 69 4.3 39.8 0
22:31 1017 30.03 846 24.98 9.9 49.9 67 4.2 39.6 0
22:32 1017 30.03 846 24.98 10 50 68 4.4 39.9 0
22:33 1017 30.03 846 24.98 10 50 68 4.5 40.1 0
22:34 1017 30.03 846 24.98 9.9 49.8 72 5 41.1 0
22:35 1017 30.03 846 24.98 9.8 49.6 71 4.9 40.7 0
22:36 1017 30.03 846 24.98 9.7 49.4 72 4.9 40.8 0
22:37 1017 30.03 846 24.98 9.6 49.2 71 4.7 40.4 0
22:38 1017 30.03 846 24.98 9.6 49.2 73 5 41 0
22:39 1017 30.03 846 24.98 9.5 49.2 72 4.8 40.7 0
22:40 1017 30.03 846 24.98 9.5 49.1 74 5.1 41.2 0
22:41 1017 30.03 846 24.98 9.4 48.9 73 4.8 40.7 0
22:42 1017 30.03 846 24.98 9.4 48.8 75 5.1 41.2 0
22:43 1017 30.03 846 24.98 9.3 48.7 73 4.7 40.4 0
22:44 1017 30.03 846 24.98 9.3 48.8 73 4.8 40.7 0
22:45 1017 30.03 846 24.98 9.3 48.7 74 5 40.9 0
22:46 1017 30.03 846 24.98 9.2 48.6 75 5 41.1 0
22:47 1017 30.03 846 24.98 9.2 48.5 74 4.7 40.5 0
22:48 1017 30.03 846 24.98 9.2 48.6 73 4.7 40.4 0
22:49 1017 30.03 846 24.98 9.3 48.7 74 4.8 40.7 0
22:50 1017 30.03 846 24.98 9.3 48.7 73 4.7 40.4 0
22:51 1017 30.03 846 24.98 9.3 48.7 71 4.4 39.9 0
22:52 1017 30.03 846 24.98 9.4 48.8 72 4.6 40.2 0
22:53 1017 30.03 846 24.98 9.4 48.9 73 4.8 40.7 0
22:54 1017 30.03 846 24.98 9.3 48.8 74 5 41 0
22:55 1017 30.03 846 24.98 9.2 48.6 73 4.7 40.5 0
22:56 1017 30.03 846 24.98 9.2 48.6 73 4.7 40.4 0
22:57 1017 30.03 846 24.98 9.3 48.7 73 4.6 40.3 0
22:58 1017 30.03 846 24.98 9.3 48.7 73 4.6 40.3 0
22:59 1016 30 846 24.98 9.3 48.7 71 4.4 39.9 0
23:00 1017 30.03 846 24.98 9.3 48.8 72 4.6 40.2 0
23:01 1017 30.03 846 24.98 9.3 48.7 72 4.6 40.2 0
23:02 1016 30 846 24.98 9.2 48.6 73 4.7 40.4 0
23:03 1016 30 846 24.98 9.2 48.5 73 4.7 40.4 0
23:04 1016 30 846 24.98 9.1 48.5 73 4.6 40.3 0
23:05 1016 30 846 24.98 9.1 48.4 73 4.6 40.3 0
23:06 1016 30 846 24.98 9.1 48.3 74 4.7 40.5 0
23:07 1016 30 846 24.98 9 48.3 74 4.6 40.2 0
23:08 1016 30 846 24.98 9.1 48.4 74 4.7 40.4 0
23:09 1017 30.03 846 24.98 9.1 48.3 74 4.6 40.3 0
23:10 1017 30.03 846 24.98 9 48.3 73 4.6 40.2 0
23:11 1017 30.03 846 24.98 9 48.2 72 4.2 39.6 0
23:12 1017 30.03 846 24.98 9.1 48.4 74 4.7 40.4 0
23:13 1017 30.03 846 24.98 9.1 48.3 72 4.2 39.6 0
23:14 1017 30.03 846 24.98 9.1 48.4 73 4.6 40.3 0
23:15 1017 30.03 846 24.98 9.1 48.3 73 4.6 40.3 0
23:16 1017 30.03 846 24.98 9 48.3 74 4.7 40.4 0
23:17 1017 30.03 846 24.98 9 48.1 74 4.6 40.3 0
23:18 1017 30.03 846 24.98 8.9 48.1 75 4.7 40.4 0
23:19 1017 30.03 846 24.98 8.9 48.1 73 4.4 39.8 0
23:20 1017 30.03 846 24.98 9 48.3 73 4.4 39.9 0
23:21 1017 30.03 846 24.98 9.1 48.3 73 4.5 40.2 0
23:22 1017 30.03 846 24.98 9.1 48.3 74 4.7 40.5 0
23:23 1017 30.03 846 24.98 9 48.2 75 4.8 40.7 0
23:24 1017 30.03 846 24.98 8.9 48 76 4.9 40.7 0
23:25 1017 30.03 846 24.98 8.9 47.9 75 4.7 40.5 0
23:26 1017 30.03 846 24.98 8.8 47.9 76 4.9 40.8 0
23:27 1017 30.03 846 24.98 8.8 47.9 77 5.1 41.1 0
23:28 1017 30.03 846 24.98 8.7 47.7 78 5.2 41.4 0
23:29 1017 30.03 846 24.98 8.6 47.5 79 5.2 41.4 0
23:30 1017 30.03 846 24.98 8.6 47.4 79 5.2 41.3 0
23:31 1017 30.03 846 24.98 8.5 47.3 79 5 41 0
23:32 1017 30.03 846 24.98 8.5 47.3 79 5 41 0
23:33 1017 30.03 846 24.98 8.5 47.3 78 4.8 40.7 0
23:34 1017 30.03 846 24.98 8.5 47.3 76 4.6 40.3 0
23:35 1017 30.03 846 24.98 8.5 47.4 76 4.5 40.2 0
23:36 1017 30.03 846 24.98 8.7 47.6 75 4.5 40.1 0
23:37 1017 30.03 846 24.98 8.7 47.7 75 4.5 40.1 0
23:38 1017 30.03 846 24.98 8.8 47.8 75 4.6 40.2 0
23:39 1017 30.03 846 24.98 8.8 47.8 75 4.5 40.1 0
23:40 1017 30.03 846 24.98 8.8 47.8 76 4.7 40.5 0
23:41 1017 30.03 846 24.98 8.7 47.7 76 4.8 40.6 0
23:42 1017 30.03 846 24.98 8.7 47.6 75 4.5 40.2 0
23:43 1017 30.03 846 24.98 8.7 47.6 76 4.7 40.5 0
23:44 1017 30.03 846 24.98 8.7 47.6 76 4.8 40.6 0
23:45 1017 30.03 846 24.98 8.6 47.5 77 4.8 40.6 0
23:46 1017 30.03 846 24.98 8.6 47.4 77 4.9 40.8 0
23:47 1017 30.03 846 24.98 8.5 47.4 78 4.9 40.8 0
23:48 1017 30.03 846 24.98 8.4 47.2 79 4.9 40.9 0
23:49 1017 30.03 846 24.98 8.4 47.1 79 5 41 0
23:50 1017 30.03 846 24.98 8.3 47 79 4.9 40.9 0
23:51 1017 30.03 846 24.98 8.3 46.9 79 4.9 40.8 0
23:52 1017 30.03 846 24.98 8.3 46.9 80 4.9 40.9 0
23:53 1017 30.03 846 24.98 8.2 46.8 79 4.9 40.8 0
23:54 1017 30.03 846 24.98 8.2 46.8 80 4.9 40.8 0
23:55 1017 30.03 846 24.98 8.2 46.7 79 4.7 40.5 0
23:56 1017 30.03 846 24.98 8.2 46.8 78 4.7 40.5 0
23:57 1017 30.03 846 24.98 8.2 46.8 79 4.7 40.5 0
23:58 1017 30.03 846 24.98 8.3 46.9 78 4.7 40.4 0
23:59 1017 30.03 846 24.98 8.2 46.8 78 4.5 40.2 0
24:00 1017 30.03 846 24.98 8.2 46.8 77 4.4 40 0